M I D A S
Marine Information and Data Acquisition System
Tripno 1249 of the Zeeleeuw from 2007-04-20 07:17:21 to 2007-04-20 08:00:09
Back to CruiseResearch ActivitiesStationsMapUnderway DataData graphs

EquipmentUnitsComment
TimeDGPSUTC
LatitudeDGPSDM.mWGS84
LongitudeDGPSDM.mWGS84
TemperatureSBE03/SBE38deg celciusITS90
ConductivitySBE21S/mITS90
SalinitySBE21 Practical Salinity Units
ChlorophylAChelsea fluorimeterg/lCalibrated in Aceton
Missing or incorrect values are displayed as -999
Sea surface data collected by the RV Zeeleeuw from 2007-04-20 07:18:22 to 2007-04-20 12:17:08
                                                                                    Next 1000 lines
Time Latitude Longitude Temperature Conductivity Salinity ChlorophylA
2007-04-20 07:18:32 51°13.581 2°56.129 19.1532 0.067765 0.3646 -2.871232
2007-04-20 07:18:37 51°13.582 2°56.126 19.2212 0.067868 0.365172 -2.871232
2007-04-20 07:18:42 51°13.583 2°56.123 19.2502 0.067868 0.365186 -2.871232
2007-04-20 07:18:47 51°13.584 2°56.119 19.2203 0.067765 0.364614 -2.871232
2007-04-20 07:18:53 51°13.586 2°56.113 19.2318 0.067765 0.364614 -2.871232
2007-04-20 07:18:58 51°13.587 2°56.108 19.2614 0.067765 0.364614 -2.871232
2007-04-20 07:19:03 51°13.589 2°56.102 19.2736 0.067868 0.365193 -2.871232
2007-04-20 07:19:08 51°13.591 2°56.096 19.3001 0.067868 0.365193 -2.871232
2007-04-20 07:19:12 51°13.593 2°56.091 19.2813 0.067868 0.3652 -2.871232
2007-04-20 07:19:18 51°13.596 2°56.083 19.2845 0.067868 0.365193 -2.871232
2007-04-20 07:19:23 51°13.598 2°56.076 19.2866 0.067765 0.364622 -2.871232
2007-04-20 07:19:28 51°13.6 2°56.069 19.2877 0.067765 0.364622 -2.871232
2007-04-20 07:19:32 51°13.601 2°56.064 19.2875 0.067765 0.364629 -2.871232
2007-04-20 07:19:37 51°13.603 2°56.057 19.2899 0.067662 0.364057 -2.871232
2007-04-20 07:19:43 51°13.606 2°56.049 19.2899 0.067765 0.364622 -2.871232
2007-04-20 07:19:48 51°13.608 2°56.042 19.2908 0.067765 0.364629 -2.871232
2007-04-20 07:19:53 51°13.61 2°56.035 19.2905 0.067765 0.364629 -2.871232
2007-04-20 07:19:57 51°13.612 2°56.03 19.3023 0.067765 0.364629 -2.871232
2007-04-20 07:20:03 51°13.614 2°56.021 19.3005 0.067765 0.364636 -2.871232
2007-04-20 07:20:08 51°13.617 2°56.014 19.3014 0.067765 0.364643 -2.871232
2007-04-20 07:20:13 51°13.619 2°56.007 19.3075 0.067765 0.364643 -2.871232
2007-04-20 07:20:18 51°13.622 2°56 19.31 0.067765 0.36465 -2.871232
2007-04-20 07:20:22 51°13.624 2°55.994 19.3152 0.067765 0.36465 -2.871232
2007-04-20 07:20:28 51°13.627 2°55.985 19.3134 0.067765 0.364657 -2.871232
2007-04-20 07:20:33 51°13.629 2°55.978 19.3085 0.067765 0.364657 -2.871232
2007-04-20 07:20:38 51°13.632 2°55.971 19.3004 0.067765 0.364657 -2.871232
2007-04-20 07:20:42 51°13.634 2°55.965 19.2983 0.067765 0.364664 -2.871232
2007-04-20 07:20:47 51°13.637 2°55.957 19.2984 0.067765 0.364671 -2.871232
2007-04-20 07:20:53 51°13.64 2°55.948 19.3041 0.067765 0.364671 -2.871232
2007-04-20 07:20:58 51°13.643 2°55.941 19.3017 0.067765 0.364671 -2.871232
2007-04-20 07:21:03 51°13.645 2°55.933 19.3185 0.067868 0.365242 -2.871232
2007-04-20 07:21:07 51°13.647 2°55.927 19.3122 0.067765 0.364671 -2.871232
2007-04-20 07:21:13 51°13.651 2°55.918 19.3245 0.067765 0.364678 -2.871232
2007-04-20 07:21:18 51°13.653 2°55.91 19.3343 0.067765 0.364678 -2.871232
2007-04-20 07:21:23 51°13.656 2°55.902 19.3297 0.067765 0.364685 -2.871232
2007-04-20 07:21:28 51°13.659 2°55.895 19.3221 0.067765 0.364685 -2.871232
2007-04-20 07:21:32 51°13.661 2°55.889 19.3224 0.067765 0.364685 -2.871232
2007-04-20 07:21:38 51°13.664 2°55.88 19.3199 0.067765 0.364685 -2.871232
2007-04-20 07:21:43 51°13.667 2°55.873 19.3172 0.067765 0.364692 -2.871232
2007-04-20 07:21:48 51°13.669 2°55.866 19.3152 0.067765 0.364692 -2.871232
2007-04-20 07:21:53 51°13.671 2°55.86 19.3143 0.067765 0.364692 -2.871232
2007-04-20 07:21:58 51°13.674 2°55.853 19.3127 0.067765 0.364699 -2.871232
2007-04-20 07:22:03 51°13.676 2°55.846 19.309 0.067868 0.36527 -2.871232
2007-04-20 07:22:07 51°13.677 2°55.841 19.3019 0.067765 0.364706 -2.871232
2007-04-20 07:22:12 51°13.679 2°55.835 19.3103 0.067765 0.364706 -2.871232
2007-04-20 07:22:17 51°13.68 2°55.829 19.3126 0.067765 0.364706 -2.871232
2007-04-20 07:22:23 51°13.682 2°55.822 19.3157 0.067765 0.364713 -2.871232
2007-04-20 07:22:28 51°13.683 2°55.817 19.3154 0.067765 0.364713 -2.871232
2007-04-20 07:22:32 51°13.685 2°55.812 19.316 0.067868 0.365284 -2.871232
2007-04-20 07:22:37 51°13.686 2°55.806 19.3186 0.067765 0.36472 -2.871232
2007-04-20 07:22:42 51°13.687 2°55.801 19.3168 0.067765 0.36472 -2.871232
2007-04-20 07:22:47 51°13.688 2°55.796 19.3138 0.067765 0.36472 -2.871232
2007-04-20 07:22:52 51°13.689 2°55.791 19.3175 0.067765 0.36472 -2.871232
2007-04-20 07:22:57 51°13.689 2°55.786 19.317 0.067765 0.36472 -2.871232
2007-04-20 07:23:02 51°13.69 2°55.781 19.323 0.067765 0.364727 -2.871232
2007-04-20 07:23:07 51°13.691 2°55.776 19.3205 0.067765 0.364734 -2.871232
2007-04-20 07:23:12 51°13.692 2°55.772 19.3222 0.067868 0.365306 -2.871232
2007-04-20 07:23:17 51°13.692 2°55.768 19.3221 0.067765 0.364734 -2.871232
2007-04-20 07:23:22 51°13.693 2°55.764 19.3279 0.067765 0.364734 -2.871232
2007-04-20 07:23:27 51°13.693 2°55.761 19.3279 0.067765 0.364734 -2.871232
2007-04-20 07:23:33 51°13.694 2°55.758 19.33 0.067868 0.365313 -2.871232
2007-04-20 07:23:37 51°13.694 2°55.756 19.3315 0.067765 0.364741 -2.871232
2007-04-20 07:23:43 51°13.694 2°55.753 19.333 0.067765 0.364741 -2.871232
2007-04-20 07:23:47 51°13.694 2°55.752 19.3321 0.067765 0.364748 -2.871232
2007-04-20 07:23:52 51°13.695 2°55.75 19.333 0.067765 0.364748 -2.871232
2007-04-20 07:23:58 51°13.695 2°55.748 19.3338 0.067765 0.364748 -2.871232
2007-04-20 07:24:03 51°13.695 2°55.747 19.3398 0.067765 0.364748 -2.871232
2007-04-20 07:24:07 51°13.695 2°55.747 19.3471 0.067765 0.364755 -2.871232
2007-04-20 07:24:12 51°13.696 2°55.747 19.3539 0.067765 0.364755 -2.871232
2007-04-20 07:24:17 51°13.696 2°55.748 19.3537 0.067765 0.364755 -2.871232
2007-04-20 07:24:23 51°13.697 2°55.749 19.3617 0.067765 0.364762 -2.871232
2007-04-20 07:24:28 51°13.697 2°55.751 19.3712 0.067765 0.364762 -2.871232
2007-04-20 07:24:32 51°13.698 2°55.752 19.3777 0.067765 0.364762 -2.871232
2007-04-20 07:24:37 51°13.699 2°55.754 19.3909 0.067765 0.364769 -2.871232
2007-04-20 07:24:43 51°13.701 2°55.757 19.3976 0.067765 0.364769 -2.871232
2007-04-20 07:24:47 51°13.702 2°55.758 19.3947 0.067765 0.364776 -2.871232
2007-04-20 07:24:52 51°13.703 2°55.76 19.3177 0.067765 0.364776 -2.871232
2007-04-20 07:24:57 51°13.705 2°55.762 19.2155 0.067765 0.364776 -2.871232
2007-04-20 07:25:02 51°13.706 2°55.763 19.174 0.067765 0.364783 -2.871232
2007-04-20 07:25:07 51°13.707 2°55.763 19.1853 0.067765 0.36479 -2.871232
2007-04-20 07:25:12 51°13.707 2°55.763 19.2817 0.067765 0.36479 -2.871232
2007-04-20 07:25:17 51°13.707 2°55.763 19.212 0.067765 0.36479 -2.871232
2007-04-20 07:25:22 51°13.706 2°55.762 19.2407 0.067765 0.36479 -2.871232
2007-04-20 07:25:27 51°13.706 2°55.761 19.2598 0.067662 0.364219 -2.871232
2007-04-20 07:25:32 51°13.705 2°55.76 19.3037 0.067765 0.36479 -2.871232
2007-04-20 07:25:37 51°13.703 2°55.758 19.2532 0.067765 0.36479 -2.871232
2007-04-20 07:25:42 51°13.702 2°55.756 19.308 0.067765 0.36479 -2.871232
2007-04-20 07:25:48 51°13.699 2°55.753 19.3107 0.067765 0.36479 -2.871232
2007-04-20 07:25:52 51°13.698 2°55.751 19.3115 0.067765 0.36479 -2.871232
2007-04-20 07:25:58 51°13.695 2°55.749 19.3188 0.067765 0.36479 -2.871232
2007-04-20 07:26:03 51°13.694 2°55.747 19.3163 0.067765 0.36479 -2.871232
2007-04-20 07:26:08 51°13.692 2°55.745 19.3358 0.067765 0.36479 -2.871232
2007-04-20 07:26:12 51°13.692 2°55.744 19.3392 0.067765 0.36479 -2.871232
2007-04-20 07:26:18 51°13.691 2°55.743 19.3512 0.067765 0.36479 -2.871232
2007-04-20 07:26:23 51°13.691 2°55.742 19.3432 0.067765 0.36479 -2.871232
2007-04-20 07:26:28 51°13.692 2°55.741 19.3504 0.067765 0.36479 -2.871232
2007-04-20 07:26:33 51°13.692 2°55.741 19.3424 0.067765 0.36479 -2.871232
2007-04-20 07:26:37 51°13.693 2°55.74 19.3354 0.067765 0.36479 -2.871232
2007-04-20 07:26:43 51°13.694 2°55.739 19.3406 0.067765 0.364797 -2.871232
2007-04-20 07:26:48 51°13.695 2°55.738 19.3453 0.067662 0.364226 -2.871232
2007-04-20 07:26:53 51°13.696 2°55.737 19.3452 0.067765 0.364805 -2.871232
2007-04-20 07:26:58 51°13.698 2°55.736 19.3463 0.067765 0.364805 -2.871232
2007-04-20 07:27:03 51°13.7 2°55.734 19.4295 0.067765 0.364805 -2.871232
2007-04-20 07:27:08 51°13.702 2°55.732 19.4563 0.067765 0.364805 -2.871232
2007-04-20 07:27:13 51°13.704 2°55.73 19.4223 0.067765 0.364812 -2.871232
2007-04-20 07:27:17 51°13.707 2°55.727 19.4255 0.067765 0.364819 -2.871232
2007-04-20 07:27:22 51°13.71 2°55.724 19.4163 0.067765 0.364819 -2.871232
2007-04-20 07:27:28 51°13.715 2°55.719 19.3836 0.067765 0.364819 -2.871232
2007-04-20 07:27:32 51°13.719 2°55.716 19.3818 0.067765 0.364826 -2.871232
2007-04-20 07:27:37 51°13.723 2°55.712 19.2246 0.067765 0.364826 -2.871232
2007-04-20 07:27:42 51°13.729 2°55.707 19.2457 0.067662 0.364254 -2.871232
2007-04-20 07:27:47 51°13.734 2°55.703 19.2555 0.067765 0.364826 -2.871232
2007-04-20 07:27:52 51°13.74 2°55.699 19.1868 0.067765 0.364826 -2.871232
2007-04-20 07:27:57 51°13.747 2°55.694 19.2194 0.067765 0.364826 -2.871232
2007-04-20 07:28:03 51°13.755 2°55.688 19.1714 0.067765 0.364833 -2.871232
2007-04-20 07:28:07 51°13.76 2°55.684 19.1845 0.067662 0.364261 -2.871232
2007-04-20 07:28:12 51°13.768 2°55.679 19.2326 0.067765 0.364833 -2.871232
2007-04-20 07:28:17 51°13.775 2°55.673 19.2255 0.067765 0.364833 -2.871232
2007-04-20 07:28:23 51°13.784 2°55.667 19.2403 0.067765 0.364833 -2.871232
2007-04-20 07:28:27 51°13.791 2°55.663 19.1999 0.067765 0.364833 -2.871232
2007-04-20 07:28:32 51°13.798 2°55.658 19.209 0.067765 0.364833 -2.871232
2007-04-20 07:28:37 51°13.806 2°55.653 19.1675 0.067765 0.364833 -2.871232
2007-04-20 07:28:43 51°13.814 2°55.646 19.2582 0.067765 0.36484 -2.871232
2007-04-20 07:28:47 51°13.82 2°55.642 19.2442 0.067765 0.36484 -2.871232
2007-04-20 07:28:52 51°13.827 2°55.636 19.2705 0.067765 0.36484 -2.871232
2007-04-20 07:28:57 51°13.834 2°55.63 19.2835 0.067765 0.364847 -2.871232
2007-04-20 07:29:03 51°13.843 2°55.623 19.305 0.067765 0.364847 -2.871232
2007-04-20 07:29:07 51°13.848 2°55.617 19.2983 0.067765 0.364847 -2.871232
2007-04-20 07:29:12 51°13.856 2°55.612 19.3062 0.067765 0.364854 -2.871232
2007-04-20 07:29:18 51°13.865 2°55.605 19.3188 0.067765 0.364854 -2.871232
2007-04-20 07:29:22 51°13.871 2°55.601 19.322 0.067765 0.364854 -2.871232
2007-04-20 07:29:27 51°13.882 2°55.597 19.3012 0.067765 0.364861 -2.871232
2007-04-20 07:29:32 51°13.89 2°55.592 19.2906 0.067662 0.364296 -2.871232
2007-04-20 07:29:37 51°13.899 2°55.585 19.3033 0.067765 0.364868 -2.871232
2007-04-20 07:29:42 51°13.907 2°55.578 19.3557 0.067765 0.364875 -2.871232
2007-04-20 07:29:48 51°13.918 2°55.57 19.2896 0.067765 0.364875 -2.871232
2007-04-20 07:29:53 51°13.928 2°55.563 19.3374 0.067765 0.364882 -2.871232
2007-04-20 07:29:57 51°13.935 2°55.556 19.2682 0.067765 0.364882 -2.871232
2007-04-20 07:30:03 51°13.947 2°55.547 19.2932 0.067765 0.364882 -2.871232
2007-04-20 07:30:07 51°13.956 2°55.541 19.1746 0.067765 0.364882 -2.871232
2007-04-20 07:30:13 51°13.969 2°55.531 19.1826 0.067765 0.364882 -2.871232
2007-04-20 07:30:18 51°13.98 2°55.523 19.0904 0.067765 0.364882 -2.871232
2007-04-20 07:30:23 51°13.992 2°55.515 19.0027 0.067765 0.364889 -2.871232
2007-04-20 07:30:27 51°14.002 2°55.509 19.0508 0.067765 0.364889 -2.871232
2007-04-20 07:30:33 51°14.016 2°55.5 19.06 0.067765 0.364889 -2.871232
2007-04-20 07:30:37 51°14.025 2°55.493 19.0286 0.067765 0.364896 -2.871232
2007-04-20 07:30:43 51°14.04 2°55.483 19.0907 0.067765 0.364896 -2.871232
2007-04-20 07:30:47 51°14.049 2°55.476 19.1873 0.067765 0.364903 -2.871232
2007-04-20 07:30:52 51°14.061 2°55.467 19.0463 0.067765 0.364903 -2.871232
2007-04-20 07:30:58 51°14.076 2°55.457 19.1463 0.067765 0.364903 -2.871232
2007-04-20 07:31:03 51°14.088 2°55.448 19.1703 0.067765 0.36491 -2.871232
2007-04-20 07:31:08 51°14.1 2°55.438 19.1949 0.067765 0.364917 -2.871232
2007-04-20 07:31:13 51°14.113 2°55.429 19.1113 0.067662 0.364346 -2.871232
2007-04-20 07:31:18 51°14.125 2°55.42 19.1701 0.067765 0.364924 -2.871232
2007-04-20 07:31:23 51°14.137 2°55.41 19.2116 0.067765 0.364924 -2.871232
2007-04-20 07:31:28 51°14.149 2°55.4 19.2957 0.067765 0.364924 -2.871232
2007-04-20 07:31:33 51°14.161 2°55.388 19.2793 0.067765 0.364931 -2.871232
2007-04-20 07:31:38 51°14.173 2°55.377 19.326 0.067765 0.364938 -2.871232
2007-04-20 07:31:42 51°14.182 2°55.366 19.3269 0.067765 0.364945 -2.871232
2007-04-20 07:31:48 51°14.195 2°55.35 19.2693 0.067765 0.364945 -2.871232
2007-04-20 07:31:53 51°14.206 2°55.336 19.2874 0.067765 0.364953 -2.871232
2007-04-20 07:31:58 51°14.217 2°55.321 19.2302 0.067765 0.364953 -2.871232
2007-04-20 07:32:03 51°14.227 2°55.307 19.1901 0.067765 0.364953 -2.871232
2007-04-20 07:32:07 51°14.235 2°55.294 19.2662 0.067765 0.364953 -2.871232
2007-04-20 07:32:12 51°14.246 2°55.279 19.2957 0.067765 0.36496 -2.871232
2007-04-20 07:32:17 51°14.256 2°55.263 19.2513 0.067765 0.364967 -2.871232
2007-04-20 07:32:22 51°14.266 2°55.246 19.2009 0.067765 0.364967 -2.871232
2007-04-20 07:32:27 51°14.275 2°55.229 19.279 0.067765 0.364974 -2.871232
2007-04-20 07:32:33 51°14.286 2°55.208 19.3013 0.067765 0.364974 -2.871232
2007-04-20 07:32:37 51°14.294 2°55.193 19.1219 0.067662 0.364409 -2.871232
2007-04-20 07:32:43 51°14.305 2°55.172 19.2331 0.067662 0.364409 -2.871232
2007-04-20 07:32:47 51°14.312 2°55.158 19.2172 0.067765 0.364988 -2.871232
2007-04-20 07:32:52 51°14.322 2°55.14 19.206 0.067765 0.364988 -2.871232
2007-04-20 07:32:58 51°14.333 2°55.118 18.6003 0.067662 0.364416 -2.871232
2007-04-20 07:33:03 51°14.341 2°55.099 18.6786 0.067765 0.364988 -2.871232
2007-04-20 07:33:07 51°14.348 2°55.083 18.7163 0.067765 0.364995 -2.871232
2007-04-20 07:33:12 51°14.356 2°55.063 18.7564 0.067765 0.365002 -2.871232
2007-04-20 07:33:17 51°14.363 2°55.042 18.8215 0.067765 0.365016 -2.871232
2007-04-20 07:33:23 51°14.37 2°55.016 18.9004 0.067765 0.365051 -2.871232
2007-04-20 07:33:27 51°14.374 2°54.998 18.9014 0.067765 0.365051 -2.871232
2007-04-20 07:33:32 51°14.379 2°54.975 18.9331 0.067765 0.365079 -2.871232
2007-04-20 07:33:37 51°14.383 2°54.952 18.8839 0.067765 0.365101 -2.871232
2007-04-20 07:33:43 51°14.388 2°54.923 18.9054 0.067662 0.364536 -2.871232
2007-04-20 07:33:48 51°14.391 2°54.899 18.9366 0.067765 0.365101 -2.871232
2007-04-20 07:33:52 51°14.393 2°54.88 18.9416 0.067765 0.365087 -2.871232
2007-04-20 07:33:57 51°14.396 2°54.855 18.945 0.067765 0.365087 -2.871232
2007-04-20 07:34:02 51°14.397 2°54.831 18.9261 0.067662 0.364501 -2.871232
2007-04-20 07:34:07 51°14.398 2°54.806 18.9076 0.067765 0.365051 -2.871232
2007-04-20 07:34:12 51°14.399 2°54.781 18.8999 0.067765 0.36503 -2.871232
2007-04-20 07:34:17 51°14.4 2°54.755 18.8992 0.067765 0.365023 -2.871232
2007-04-20 07:34:22 51°14.4 2°54.73 18.9026 0.067765 0.365023 -2.871232
2007-04-20 07:34:27 51°14.4 2°54.704 18.9315 0.067765 0.365009 -2.871232
2007-04-20 07:34:32 51°14.4 2°54.678 18.9026 0.067765 0.365009 -2.871232
2007-04-20 07:34:37 51°14.4 2°54.653 18.9705 0.067662 0.364451 -2.871232
2007-04-20 07:34:42 51°14.399 2°54.627 18.9795 0.067765 0.36503 -2.871232
2007-04-20 07:34:47 51°14.398 2°54.601 18.9596 0.067765 0.365044 -2.871232
2007-04-20 07:34:53 51°14.395 2°54.57 18.9845 0.067765 0.365065 -2.871232
2007-04-20 07:34:57 51°14.393 2°54.55 18.9749 0.067765 0.365065 -2.871232
2007-04-20 07:35:03 51°14.389 2°54.519 18.964 0.067765 0.365079 -2.871232
2007-04-20 07:35:07 51°14.386 2°54.499 18.9253 0.067765 0.365094 -2.871232
2007-04-20 07:35:12 51°14.382 2°54.473 18.9327 0.067765 0.365108 -2.871232
2007-04-20 07:35:17 51°14.377 2°54.448 19.0145 0.067662 0.364536 -2.871232
2007-04-20 07:35:23 51°14.37 2°54.419 18.9429 0.067662 0.364543 -2.871232
2007-04-20 07:35:27 51°14.365 2°54.399 18.9563 0.067662 0.364543 -2.871232
2007-04-20 07:35:32 51°14.358 2°54.375 18.9513 0.067765 0.365122 -2.871232
2007-04-20 07:35:37 51°14.351 2°54.351 18.965 0.067662 0.36455 -2.871232
2007-04-20 07:35:43 51°14.342 2°54.323 18.9988 0.067765 0.365122 -2.871232
2007-04-20 07:35:48 51°14.334 2°54.3 18.9224 0.067662 0.36455 -2.871232
2007-04-20 07:35:52 51°14.328 2°54.281 18.9773 0.067662 0.36455 -2.871232
2007-04-20 07:35:57 51°14.32 2°54.257 18.9785 0.067662 0.36455 -2.871232
2007-04-20 07:36:03 51°14.31 2°54.229 18.9541 0.067662 0.364557 -2.871232
2007-04-20 07:36:08 51°14.302 2°54.205 18.9387 0.067765 0.365129 -2.871232
2007-04-20 07:36:12 51°14.296 2°54.186 18.9737 0.067662 0.364564 -2.871232
2007-04-20 07:36:17 51°14.288 2°54.162 18.994 0.067662 0.364571 -2.871232
2007-04-20 07:36:22 51°14.28 2°54.138 18.9709 0.067662 0.364571 -2.871232
2007-04-20 07:36:28 51°14.271 2°54.11 18.9781 0.067662 0.364578 -2.871232
2007-04-20 07:36:33 51°14.263 2°54.086 18.9966 0.067765 0.365157 -2.871232
2007-04-20 07:36:37 51°14.257 2°54.067 19.0097 0.067662 0.364592 -2.871232
2007-04-20 07:36:43 51°14.247 2°54.039 18.9504 0.067662 0.364599 -2.871232
2007-04-20 07:36:47 51°14.24 2°54.02 19.0103 0.067662 0.364599 -2.871232
2007-04-20 07:36:52 51°14.231 2°53.997 18.9202 0.067662 0.364606 -2.871232
2007-04-20 07:36:57 51°14.223 2°53.973 19.0381 0.067662 0.364606 -2.871232
2007-04-20 07:37:02 51°14.214 2°53.951 18.9695 0.067765 0.365185 -2.871232
2007-04-20 07:37:07 51°14.205 2°53.928 18.997 0.067765 0.365185 -2.871232
2007-04-20 07:37:13 51°14.194 2°53.9 18.9857 0.067765 0.365192 -2.871232
2007-04-20 07:37:17 51°14.187 2°53.882 18.9943 0.067662 0.36462 -2.871232
2007-04-20 07:37:23 51°14.175 2°53.855 18.9863 0.067765 0.365199 -2.871232
2007-04-20 07:37:27 51°14.168 2°53.836 19.0108 0.067765 0.365199 -2.871232
2007-04-20 07:37:32 51°14.159 2°53.814 18.9214 0.067765 0.365207 -2.871232
2007-04-20 07:37:37 51°14.15 2°53.79 19.0021 0.067765 0.365207 -2.871232
2007-04-20 07:37:43 51°14.139 2°53.764 18.9474 0.067662 0.364641 -2.871232
2007-04-20 07:37:47 51°14.133 2°53.747 19.0268 0.067662 0.364648 -2.871232
2007-04-20 07:37:52 51°14.124 2°53.726 18.9275 0.067662 0.364648 -2.871232
2007-04-20 07:37:57 51°14.117 2°53.706 19.007 0.067662 0.364656 -2.871232
2007-04-20 07:38:03 51°14.109 2°53.683 18.9238 0.067765 0.365242 -2.871232
2007-04-20 07:38:07 51°14.104 2°53.668 18.9776 0.067662 0.364663 -2.871232
2007-04-20 07:38:12 51°14.098 2°53.65 18.9607 0.067662 0.364677 -2.871232
2007-04-20 07:38:17 51°14.093 2°53.632 18.9792 0.067662 0.364677 -2.871232
2007-04-20 07:38:22 51°14.087 2°53.615 18.9619 0.067662 0.364677 -2.871232
2007-04-20 07:38:28 51°14.082 2°53.595 18.9899 0.067662 0.364677 -2.871232
2007-04-20 07:38:32 51°14.079 2°53.582 18.998 0.067765 0.365256 -2.871232
2007-04-20 07:38:37 51°14.075 2°53.566 19.0061 0.067765 0.365256 -2.871232
2007-04-20 07:38:42 51°14.071 2°53.551 18.9826 0.067662 0.364684 -2.871232
2007-04-20 07:38:48 51°14.067 2°53.534 18.9823 0.067765 0.365256 -2.871232
2007-04-20 07:38:52 51°14.064 2°53.523 18.9679 0.067662 0.364691 -2.871232
2007-04-20 07:38:57 51°14.06 2°53.509 19.0196 0.067662 0.364691 -2.871232
2007-04-20 07:39:03 51°14.056 2°53.493 19.0385 0.067662 0.364691 -2.871232
2007-04-20 07:39:07 51°14.053 2°53.483 19.029 0.067662 0.364691 -2.871232
2007-04-20 07:39:12 51°14.049 2°53.471 19.0432 0.067765 0.36527 -2.871232
2007-04-20 07:39:17 51°14.045 2°53.46 19.0248 0.067662 0.364698 -2.871232
2007-04-20 07:39:22 51°14.041 2°53.448 19.0309 0.067765 0.365284 -2.871232
2007-04-20 07:39:27 51°14.037 2°53.437 19.1819 0.067765 0.365284 -2.871232
2007-04-20 07:39:32 51°14.033 2°53.427 19.1822 0.067662 0.364712 -2.871232
2007-04-20 07:39:37 51°14.029 2°53.416 19.1601 0.067662 0.364719 -2.871232
2007-04-20 07:39:43 51°14.024 2°53.404 19.183 0.067662 0.364726 -2.871232
2007-04-20 07:39:47 51°14.02 2°53.396 19.1552 0.067663 0.364733 -2.871232
2007-04-20 07:39:52 51°14.016 2°53.387 19.1356 0.067663 0.364733 -2.871232
2007-04-20 07:39:58 51°14.01 2°53.375 19.157 0.067663 0.36474 -2.871232
2007-04-20 07:40:03 51°14.006 2°53.366 19.1544 0.067663 0.364747 -2.871232
2007-04-20 07:40:07 51°14.002 2°53.359 19.1217 0.067663 0.364754 -2.871232
2007-04-20 07:40:12 51°13.998 2°53.35 19.1236 0.067663 0.364754 -2.871232
2007-04-20 07:40:17 51°13.993 2°53.341 19.1277 0.067663 0.364761 -2.871232
2007-04-20 07:40:23 51°13.988 2°53.33 19.1269 0.067765 0.365341 -2.871232
2007-04-20 07:40:28 51°13.984 2°53.322 19.1321 0.067765 0.365341 -2.871232
2007-04-20 07:40:32 51°13.98 2°53.315 19.1314 0.067663 0.364775 -2.871232
2007-04-20 07:40:37 51°13.976 2°53.306 19.0993 0.067765 0.365348 -2.871232
2007-04-20 07:40:42 51°13.972 2°53.298 19.1132 0.067663 0.364783 -2.871232
2007-04-20 07:40:48 51°13.966 2°53.288 19.0973 0.067663 0.364783 -2.871232
2007-04-20 07:40:52 51°13.963 2°53.281 19.1293 0.067663 0.36479 -2.871232
2007-04-20 07:40:57 51°13.959 2°53.273 19.1378 0.067663 0.36479 -2.871232
2007-04-20 07:41:03 51°13.954 2°53.264 19.1345 0.067663 0.36479 -2.871232
2007-04-20 07:41:07 51°13.95 2°53.257 19.1376 0.067765 0.365362 -2.871232
2007-04-20 07:41:12 51°13.946 2°53.249 19.1272 0.067663 0.36479 -2.871232
2007-04-20 07:41:17 51°13.942 2°53.241 19.1223 0.067765 0.365369 -2.871232
2007-04-20 07:41:22 51°13.938 2°53.233 19.1234 0.067663 0.364797 -2.871232
2007-04-20 07:41:27 51°13.934 2°53.225 19.1291 0.067663 0.364797 -2.871232
2007-04-20 07:41:32 51°13.93 2°53.217 19.1378 0.067663 0.364797 -2.871232
2007-04-20 07:41:37 51°13.926 2°53.21 19.1326 0.067663 0.364804 -2.871232
2007-04-20 07:41:42 51°13.922 2°53.202 19.1259 0.067663 0.364804 -2.871232
2007-04-20 07:41:47 51°13.918 2°53.194 19.1293 0.067663 0.364811 -2.871232
2007-04-20 07:41:53 51°13.913 2°53.185 19.1409 0.067663 0.364811 -2.871232
2007-04-20 07:41:57 51°13.91 2°53.178 19.1414 0.067663 0.364811 -2.871232
2007-04-20 07:42:03 51°13.905 2°53.169 19.1272 0.067663 0.364818 -2.871232
2007-04-20 07:42:07 51°13.902 2°53.163 19.1164 0.067663 0.364825 -2.871232
2007-04-20 07:42:12 51°13.898 2°53.155 19.1301 0.067663 0.364825 -2.871232
2007-04-20 07:42:17 51°13.894 2°53.147 19.1374 0.067663 0.364825 -2.871232
2007-04-20 07:42:23 51°13.89 2°53.138 19.1192 0.067663 0.364839 -2.871232
2007-04-20 07:42:27 51°13.887 2°53.131 19.1202 0.067663 0.364839 -2.871232
2007-04-20 07:42:32 51°13.883 2°53.124 19.1406 0.067663 0.364832 -2.871232
2007-04-20 07:42:37 51°13.88 2°53.116 19.1397 0.067663 0.364839 -2.871232
2007-04-20 07:42:43 51°13.875 2°53.106 19.1139 0.067663 0.364846 -2.871232
2007-04-20 07:42:48 51°13.872 2°53.098 19.1334 0.067663 0.364846 -2.871232
2007-04-20 07:42:52 51°13.869 2°53.092 19.1356 0.067663 0.364853 -2.871232
2007-04-20 07:42:57 51°13.865 2°53.084 19.1407 0.067663 0.364853 -2.871232
2007-04-20 07:43:02 51°13.862 2°53.076 19.1364 0.067663 0.364853 -2.871232
2007-04-20 07:43:07 51°13.858 2°53.068 19.1433 0.067663 0.364853 -2.871232
2007-04-20 07:43:12 51°13.855 2°53.06 19.147 0.067663 0.36486 -2.871232
2007-04-20 07:43:17 51°13.851 2°53.052 19.1255 0.067663 0.364867 -2.871232
2007-04-20 07:43:22 51°13.848 2°53.044 19.1487 0.067663 0.364867 -2.871232
2007-04-20 07:43:27 51°13.844 2°53.036 19.1451 0.067663 0.364874 -2.871232
2007-04-20 07:43:32 51°13.841 2°53.029 19.1497 0.067663 0.364881 -2.871232
2007-04-20 07:43:37 51°13.837 2°53.021 19.1309 0.067663 0.364881 -2.871232
2007-04-20 07:43:42 51°13.834 2°53.013 19.14 0.067663 0.364888 -2.871232
2007-04-20 07:43:47 51°13.83 2°53.005 19.1481 0.067663 0.364888 -2.871232
2007-04-20 07:43:53 51°13.826 2°52.996 19.1508 0.06756 0.364323 -2.871232
2007-04-20 07:43:57 51°13.823 2°52.99 19.1426 0.06756 0.364323 -2.871232
2007-04-20 07:44:03 51°13.819 2°52.98 19.1361 0.067663 0.364895 -2.871232
2007-04-20 07:44:07 51°13.816 2°52.974 19.1331 0.067663 0.364903 -2.871232
2007-04-20 07:44:12 51°13.812 2°52.966 19.1433 0.067663 0.364903 -2.871232
2007-04-20 07:44:18 51°13.808 2°52.957 19.1248 0.067765 0.365482 -2.871232
2007-04-20 07:44:23 51°13.805 2°52.95 19.1172 0.06756 0.364337 -2.871232
2007-04-20 07:44:27 51°13.802 2°52.943 19.1381 0.06756 0.364337 -2.871232
2007-04-20 07:44:32 51°13.798 2°52.936 19.1389 0.067663 0.364917 -2.871232
2007-04-20 07:44:37 51°13.795 2°52.928 19.1444 0.067663 0.364917 -2.871232
2007-04-20 07:44:43 51°13.79 2°52.919 19.1401 0.067663 0.364924 -2.871232
2007-04-20 07:44:48 51°13.787 2°52.911 19.1474 0.06756 0.364351 -2.871232
2007-04-20 07:44:52 51°13.784 2°52.905 19.115 0.067663 0.364931 -2.871232
2007-04-20 07:44:57 51°13.78 2°52.898 19.1406 0.067663 0.364931 -2.871232
2007-04-20 07:45:03 51°13.776 2°52.889 19.1506 0.067663 0.364931 -2.871232
2007-04-20 07:45:07 51°13.773 2°52.883 19.139 0.06756 0.364365 -2.871232
2007-04-20 07:45:12 51°13.77 2°52.875 19.1443 0.067663 0.364945 -2.871232
2007-04-20 07:45:17 51°13.766 2°52.868 19.1569 0.067663 0.364945 -2.871232
2007-04-20 07:45:22 51°13.762 2°52.86 19.1534 0.067663 0.364945 -2.871232
2007-04-20 07:45:28 51°13.758 2°52.851 19.1229 0.067663 0.364945 -2.871232
2007-04-20 07:45:32 51°13.755 2°52.845 19.1401 0.067663 0.364945 -2.871232
2007-04-20 07:45:37 51°13.752 2°52.838 19.1358 0.067663 0.364952 -2.871232
2007-04-20 07:45:42 51°13.748 2°52.83 19.1606 0.067663 0.364959 -2.871232
2007-04-20 07:45:47 51°13.744 2°52.823 19.1559 0.067663 0.364959 -2.871232
2007-04-20 07:45:52 51°13.741 2°52.815 19.1562 0.067663 0.364966 -2.871232
2007-04-20 07:45:57 51°13.737 2°52.808 19.1536 0.067663 0.364966 -2.871232
2007-04-20 07:46:02 51°13.734 2°52.8 19.1524 0.067663 0.364966 -2.871232
2007-04-20 07:46:07 51°13.73 2°52.793 19.1476 0.067663 0.364973 -2.871232
2007-04-20 07:46:12 51°13.726 2°52.786 19.1434 0.067663 0.364973 -2.871232
2007-04-20 07:46:17 51°13.722 2°52.779 19.1339 0.067663 0.36498 -2.871232
2007-04-20 07:46:23 51°13.718 2°52.77 19.1292 0.067663 0.36498 -2.871232
2007-04-20 07:46:27 51°13.715 2°52.764 19.1429 0.067663 0.36498 -2.871232
2007-04-20 07:46:32 51°13.711 2°52.757 19.1372 0.067663 0.364987 -2.871232
2007-04-20 07:46:37 51°13.707 2°52.749 19.1662 0.067663 0.364987 -2.871232
2007-04-20 07:46:43 51°13.703 2°52.74 19.1606 0.067663 0.364987 -2.871232
2007-04-20 07:46:47 51°13.7 2°52.735 19.1487 0.067663 0.364994 -2.871232
2007-04-20 07:46:52 51°13.696 2°52.728 19.1667 0.067663 0.364994 -2.871232
2007-04-20 07:46:57 51°13.692 2°52.721 19.1576 0.067663 0.365001 -2.871232
2007-04-20 07:47:03 51°13.687 2°52.712 19.1726 0.067663 0.365001 -2.871232
2007-04-20 07:47:07 51°13.684 2°52.706 19.1785 0.067663 0.365008 -2.871232
2007-04-20 07:47:12 51°13.681 2°52.699 19.1569 0.067663 0.365016 -2.871232
2007-04-20 07:47:17 51°13.677 2°52.692 19.1723 0.067663 0.365008 -2.871232
2007-04-20 07:47:22 51°13.673 2°52.685 19.172 0.067663 0.365008 -2.871232
2007-04-20 07:47:27 51°13.669 2°52.678 19.1545 0.067663 0.365016 -2.871232
2007-04-20 07:47:32 51°13.665 2°52.671 19.1445 0.06756 0.364443 -2.871232
2007-04-20 07:47:37 51°13.661 2°52.664 19.1676 0.06756 0.36445 -2.871232
2007-04-20 07:47:42 51°13.657 2°52.657 19.1644 0.067663 0.36503 -2.871232
2007-04-20 07:47:48 51°13.653 2°52.649 19.1659 0.067663 0.36503 -2.871232
2007-04-20 07:47:52 51°13.649 2°52.644 19.1779 0.067663 0.365037 -2.871232
2007-04-20 07:47:57 51°13.645 2°52.637 19.1774 0.067663 0.365037 -2.871232
2007-04-20 07:48:02 51°13.641 2°52.629 19.1698 0.067663 0.365037 -2.871232
2007-04-20 07:48:07 51°13.637 2°52.619 19.1761 0.067663 0.365037 -2.871232
2007-04-20 07:48:13 51°13.633 2°52.607 19.1356 0.067663 0.365044 -2.871232
2007-04-20 07:48:17 51°13.63 2°52.598 19.1381 0.067663 0.365044 -2.871232
2007-04-20 07:48:23 51°13.627 2°52.585 19.1533 0.067663 0.365044 -2.871232
2007-04-20 07:48:27 51°13.626 2°52.575 19.15 0.067663 0.365044 -2.871232
2007-04-20 07:48:33 51°13.624 2°52.56 19.1491 0.067663 0.365058 -2.871232
2007-04-20 07:48:37 51°13.623 2°52.551 19.1482 0.06756 0.364492 -2.871232
2007-04-20 07:48:43 51°13.624 2°52.536 19.1357 0.067663 0.365072 -2.871232
2007-04-20 07:48:47 51°13.624 2°52.526 19.1328 0.06756 0.364513 -2.871232
2007-04-20 07:48:52 51°13.626 2°52.514 19.1325 0.06756 0.364513 -2.871232
2007-04-20 07:48:57 51°13.628 2°52.503 19.1462 0.067663 0.365086 -2.871232
2007-04-20 07:49:03 51°13.631 2°52.49 19.1382 0.067663 0.3651 -2.871232
2007-04-20 07:49:07 51°13.634 2°52.482 19.1527 0.067663 0.365107 -2.871232
2007-04-20 07:49:12 51°13.638 2°52.473 19.1421 0.067663 0.365115 -2.871232
2007-04-20 07:49:18 51°13.643 2°52.463 19.1614 0.06756 0.364542 -2.871232
2007-04-20 07:49:23 51°13.647 2°52.456 19.1605 0.06756 0.364542 -2.871232
2007-04-20 07:49:27 51°13.65 2°52.451 19.164 0.06756 0.364542 -2.871232
2007-04-20 07:49:32 51°13.655 2°52.446 19.1584 0.067663 0.365115 -2.871232
2007-04-20 07:49:37 51°13.661 2°52.441 19.1458 0.067663 0.365115 -2.871232
2007-04-20 07:49:43 51°13.667 2°52.438 19.1641 0.067663 0.365122 -2.871232
2007-04-20 07:49:48 51°13.673 2°52.437 19.1606 0.06756 0.364549 -2.871232
2007-04-20 07:49:52 51°13.678 2°52.438 19.1581 0.067663 0.365129 -2.871232
2007-04-20 07:49:57 51°13.683 2°52.441 19.1544 0.067663 0.365129 -2.871232
2007-04-20 07:50:02 51°13.688 2°52.445 19.1634 0.06756 0.364563 -2.871232
2007-04-20 07:50:08 51°13.693 2°52.453 19.1623 0.067663 0.365143 -2.871232
2007-04-20 07:50:12 51°13.696 2°52.459 19.1935 0.06756 0.36457 -2.871232
2007-04-20 07:50:17 51°13.7 2°52.469 19.193 0.067663 0.365157 -2.871232
2007-04-20 07:50:22 51°13.704 2°52.48 19.2021 0.067663 0.365157 -2.871232
2007-04-20 07:50:27 51°13.709 2°52.493 19.2079 0.06756 0.364598 -2.871232
2007-04-20 07:50:33 51°13.715 2°52.511 19.183 0.067663 0.365178 -2.871232
2007-04-20 07:50:37 51°13.72 2°52.523 19.1806 0.067663 0.365171 -2.871232
2007-04-20 07:50:43 51°13.727 2°52.544 19.202 0.067663 0.365164 -2.871232
2007-04-20 07:50:47 51°13.733 2°52.558 19.1984 0.067663 0.365157 -2.871232
2007-04-20 07:50:52 51°13.74 2°52.577 19.1834 0.06756 0.364577 -2.871232
2007-04-20 07:50:57 51°13.748 2°52.596 19.1713 0.06756 0.364577 -2.871232
2007-04-20 07:51:03 51°13.757 2°52.619 19.1584 0.067663 0.365143 -2.871232
2007-04-20 07:51:07 51°13.763 2°52.636 19.1807 0.067663 0.365136 -2.871232
2007-04-20 07:51:12 51°13.771 2°52.656 19.1902 0.067663 0.365129 -2.871232
2007-04-20 07:51:17 51°13.779 2°52.676 19.1825 0.067663 0.365136 -2.871232
2007-04-20 07:51:23 51°13.789 2°52.702 19.2013 0.067663 0.365143 -2.871232
2007-04-20 07:51:27 51°13.795 2°52.718 19.1751 0.067663 0.365143 -2.871232
2007-04-20 07:51:32 51°13.803 2°52.739 19.1922 0.067663 0.36515 -2.871232
2007-04-20 07:51:38 51°13.813 2°52.764 19.1962 0.067663 0.365164 -2.871232
2007-04-20 07:51:43 51°13.822 2°52.785 19.2035 0.067663 0.365178 -2.871232
2007-04-20 07:51:47 51°13.829 2°52.802 19.2025 0.067663 0.365185 -2.871232
2007-04-20 07:51:52 51°13.838 2°52.823 19.1827 0.067663 0.365199 -2.871232
2007-04-20 07:51:57 51°13.847 2°52.844 19.1884 0.067663 0.365199 -2.871232
2007-04-20 07:52:03 51°13.858 2°52.869 19.1734 0.067663 0.365206 -2.871232
2007-04-20 07:52:08 51°13.866 2°52.89 19.2005 0.067663 0.365206 -2.871232
2007-04-20 07:52:12 51°13.873 2°52.908 19.1904 0.067663 0.365214 -2.871232
2007-04-20 07:52:17 51°13.881 2°52.93 19.1803 0.06756 0.36464 -2.871232
2007-04-20 07:52:22 51°13.889 2°52.952 19.1893 0.06756 0.36464 -2.871232
2007-04-20 07:52:28 51°13.898 2°52.979 19.2071 0.06756 0.36464 -2.871232
2007-04-20 07:52:33 51°13.905 2°53.001 19.1957 0.067663 0.365214 -2.871232
2007-04-20 07:52:37 51°13.912 2°53.019 19.1964 0.067663 0.365214 -2.871232
2007-04-20 07:52:43 51°13.921 2°53.046 19.2099 0.06756 0.364648 -2.871232
2007-04-20 07:52:48 51°13.93 2°53.067 19.1887 0.067663 0.365228 -2.871232
2007-04-20 07:52:52 51°13.936 2°53.085 19.1991 0.067663 0.365228 -2.871232
2007-04-20 07:52:57 51°13.945 2°53.107 19.1925 0.067663 0.365228 -2.871232
2007-04-20 07:53:03 51°13.954 2°53.134 19.1908 0.06756 0.364662 -2.871232
2007-04-20 07:53:07 51°13.959 2°53.152 19.2017 0.067663 0.365235 -2.871232
2007-04-20 07:53:12 51°13.967 2°53.175 19.207 0.067663 0.365242 -2.871232
2007-04-20 07:53:17 51°13.974 2°53.197 19.2084 0.06756 0.364676 -2.871232
2007-04-20 07:53:23 51°13.984 2°53.224 19.1917 0.067663 0.365256 -2.871232
2007-04-20 07:53:27 51°13.99 2°53.242 19.2232 0.067663 0.365256 -2.871232
2007-04-20 07:53:32 51°13.997 2°53.264 19.2014 0.067663 0.365263 -2.871232
2007-04-20 07:53:38 51°14.007 2°53.291 19.1961 0.06756 0.36469 -2.871232
2007-04-20 07:53:43 51°14.014 2°53.314 19.2047 0.067663 0.365263 -2.871232
2007-04-20 07:53:47 51°14.019 2°53.332 19.2294 0.067663 0.365263 -2.871232
2007-04-20 07:53:52 51°14.027 2°53.355 19.1821 0.067663 0.365263 -2.871232
2007-04-20 07:53:57 51°14.033 2°53.378 19.2065 0.067663 0.365263 -2.871232
2007-04-20 07:54:03 51°14.042 2°53.406 19.2181 0.067663 0.36527 -2.871232
2007-04-20 07:54:08 51°14.048 2°53.43 19.2022 0.067663 0.365277 -2.871232
2007-04-20 07:54:12 51°14.053 2°53.449 19.2043 0.06756 0.364704 -2.871232
2007-04-20 07:54:17 51°14.058 2°53.473 19.201 0.06756 0.364711 -2.871232
2007-04-20 07:54:23 51°14.065 2°53.501 19.2188 0.06756 0.364718 -2.871232
2007-04-20 07:54:28 51°14.071 2°53.525 19.2313 0.06756 0.364718 -2.871232
2007-04-20 07:54:32 51°14.076 2°53.544 19.2275 0.067663 0.365306 -2.871232
2007-04-20 07:54:37 51°14.083 2°53.567 19.2113 0.06756 0.364739 -2.871232
2007-04-20 07:54:42 51°14.09 2°53.589 19.2269 0.067663 0.36532 -2.871232
2007-04-20 07:54:48 51°14.1 2°53.616 19.2144 0.06756 0.364746 -2.871232
2007-04-20 07:54:52 51°14.106 2°53.634 19.2183 0.067663 0.365327 -2.871232
2007-04-20 07:54:57 51°14.115 2°53.656 19.2253 0.067663 0.365327 -2.871232
2007-04-20 07:55:02 51°14.123 2°53.678 19.2118 0.067663 0.365327 -2.871232
2007-04-20 07:55:07 51°14.131 2°53.7 19.223 0.067663 0.365334 -2.871232
2007-04-20 07:55:13 51°14.142 2°53.726 19.2149 0.06756 0.364768 -2.871232
2007-04-20 07:55:17 51°14.148 2°53.743 19.2128 0.067663 0.365341 -2.871232
2007-04-20 07:55:23 51°14.158 2°53.77 19.2057 0.06756 0.364768 -2.871232
2007-04-20 07:55:27 51°14.164 2°53.788 19.2248 0.06756 0.364768 -2.871232
2007-04-20 07:55:33 51°14.174 2°53.814 19.2125 0.067663 0.365348 -2.871232
2007-04-20 07:55:37 51°14.181 2°53.832 19.2215 0.06756 0.364782 -2.871232
2007-04-20 07:55:43 51°14.19 2°53.859 19.2171 0.067663 0.365362 -2.871232
2007-04-20 07:55:47 51°14.196 2°53.877 19.2191 0.067663 0.365369 -2.871232
2007-04-20 07:55:52 51°14.204 2°53.9 19.213 0.067663 0.365376 -2.871232
2007-04-20 07:55:57 51°14.211 2°53.923 19.2324 0.067663 0.365376 -2.871232
2007-04-20 07:56:03 51°14.22 2°53.95 19.2202 0.067663 0.365383 -2.871232
2007-04-20 07:56:07 51°14.226 2°53.969 19.23 0.067663 0.365391 -2.871232
2007-04-20 07:56:12 51°14.233 2°53.992 19.226 0.06756 0.364824 -2.871232
2007-04-20 07:56:17 51°14.24 2°54.015 19.2341 0.06756 0.364824 -2.871232
2007-04-20 07:56:23 51°14.249 2°54.042 19.234 0.06756 0.364831 -2.871232
2007-04-20 07:56:28 51°14.257 2°54.064 19.2426 0.06756 0.364831 -2.871232
2007-04-20 07:56:32 51°14.264 2°54.081 19.24 0.06756 0.364838 -2.871232
2007-04-20 07:56:37 51°14.273 2°54.102 19.2323 0.06756 0.364845 -2.871232
2007-04-20 07:56:42 51°14.283 2°54.122 19.2252 0.06756 0.364853 -2.871232
2007-04-20 07:56:48 51°14.295 2°54.146 19.2345 0.06756 0.364853 -2.871232
2007-04-20 07:56:52 51°14.303 2°54.162 19.2386 0.06756 0.36486 -2.871232
2007-04-20 07:56:57 51°14.314 2°54.181 19.2303 0.06756 0.36486 -2.871232
2007-04-20 07:57:02 51°14.324 2°54.201 19.2281 0.06756 0.36486 -2.871232
2007-04-20 07:57:07 51°14.333 2°54.222 19.2288 0.06756 0.36486 -2.871232
2007-04-20 07:57:12 51°14.341 2°54.245 19.2317 0.06756 0.36486 -2.871232
2007-04-20 07:57:17 51°14.348 2°54.268 19.2304 0.06756 0.364867 -2.871232
2007-04-20 07:57:23 51°14.355 2°54.297 19.2311 0.06756 0.364874 -2.871232
2007-04-20 07:57:27 51°14.359 2°54.317 19.2269 0.06756 0.364874 -2.871232
2007-04-20 07:57:33 51°14.365 2°54.346 19.2265 0.06756 0.364881 -2.871232
2007-04-20 07:57:37 51°14.368 2°54.366 19.2411 0.06756 0.364895 -2.871232
2007-04-20 07:57:43 51°14.373 2°54.396 19.2462 0.06756 0.364909 -2.871232
2007-04-20 07:57:47 51°14.378 2°54.415 19.243 0.06756 0.364923 -2.871232
2007-04-20 07:57:52 51°14.382 2°54.44 19.2381 0.06756 0.364923 -2.871232
2007-04-20 07:57:57 51°14.387 2°54.465 19.2371 0.06756 0.36493 -2.871232
2007-04-20 07:58:03 51°14.391 2°54.496 19.2453 0.06756 0.36493 -2.871232
2007-04-20 07:58:07 51°14.393 2°54.516 19.2309 0.067663 0.365511 -2.871232
2007-04-20 07:58:12 51°14.395 2°54.543 19.2429 0.06756 0.36493 -2.871232
2007-04-20 07:58:17 51°14.396 2°54.57 19.2479 0.06756 0.364945 -2.871232
2007-04-20 07:58:23 51°14.397 2°54.603 19.2507 0.06756 0.364952 -2.871232
2007-04-20 07:58:27 51°14.398 2°54.626 19.2426 0.06756 0.364952 -2.871232
2007-04-20 07:58:32 51°14.399 2°54.654 19.2464 0.06756 0.364952 -2.871232
2007-04-20 07:58:37 51°14.398 2°54.681 19.2548 0.067663 0.365525 -2.871232
2007-04-20 07:58:43 51°14.397 2°54.715 19.2519 0.06756 0.364966 -2.871232
2007-04-20 07:58:47 51°14.397 2°54.737 19.2494 0.06756 0.364966 -2.871232
2007-04-20 07:58:52 51°14.395 2°54.763 19.2595 0.06756 0.36498 -2.871232
2007-04-20 07:58:57 51°14.393 2°54.79 19.2527 0.06756 0.36498 -2.871232
2007-04-20 07:59:03 51°14.389 2°54.821 19.2574 0.06756 0.36498 -2.871232
2007-04-20 07:59:08 51°14.387 2°54.847 19.2549 0.06756 0.364987 -2.871232
2007-04-20 07:59:12 51°14.384 2°54.869 19.2665 0.06756 0.365008 -2.871232
2007-04-20 07:59:17 51°14.382 2°54.896 19.2562 0.06756 0.365022 -2.871232
2007-04-20 07:59:22 51°14.379 2°54.924 19.2473 0.06756 0.365022 -2.871232
2007-04-20 07:59:28 51°14.374 2°54.955 19.2603 0.06756 0.365022 -2.871232
2007-04-20 07:59:33 51°14.371 2°54.981 19.2587 0.06756 0.365037 -2.871232
2007-04-20 07:59:37 51°14.367 2°55.002 19.2576 0.06756 0.365044 -2.871232
2007-04-20 07:59:43 51°14.361 2°55.033 19.2585 0.06756 0.365051 -2.871232
2007-04-20 07:59:47 51°14.356 2°55.053 19.26 0.06756 0.365051 -2.871232
2007-04-20 07:59:53 51°14.348 2°55.083 19.2614 0.06756 0.365065 -2.871232
2007-04-20 07:59:57 51°14.342 2°55.104 19.2547 0.06756 0.365065 -2.871232
2007-04-20 08:00:03 51°14.332 2°55.133 19.2496 0.06756 0.365065 -2.871232
2007-04-20 08:00:07 51°14.325 2°55.151 19.2596 0.06756 0.365058 -2.871232
2007-04-20 08:00:12 51°14.315 2°55.172 19.2578 0.06756 0.365065 -2.871232
2007-04-20 08:00:18 51°14.303 2°55.195 19.2621 0.06756 0.365072 -2.871232
2007-04-20 08:00:23 51°14.294 2°55.214 19.2631 0.06756 0.365086 -2.871232
2007-04-20 08:00:27 51°14.287 2°55.227 19.2661 0.06756 0.365086 -2.871232
2007-04-20 08:00:32 51°14.279 2°55.243 19.2639 0.06756 0.365093 -2.871232
2007-04-20 08:00:38 51°14.268 2°55.261 19.2675 0.067457 0.364527 -2.871232
2007-04-20 08:00:43 51°14.259 2°55.274 19.2665 0.06756 0.365107 -2.871232
2007-04-20 08:00:48 51°14.25 2°55.286 19.2664 0.06756 0.365114 -2.871232
2007-04-20 08:00:52 51°14.243 2°55.295 19.2724 0.06756 0.365129 -2.871232
2007-04-20 08:00:58 51°14.232 2°55.308 19.2749 0.06756 0.365129 -2.871232
2007-04-20 08:01:03 51°14.223 2°55.319 19.2766 0.06756 0.365136 -2.871232
2007-04-20 08:01:08 51°14.214 2°55.329 19.2776 0.06756 0.365143 -2.871232
2007-04-20 08:01:13 51°14.205 2°55.338 19.2785 0.06756 0.36515 -2.871232
2007-04-20 08:01:17 51°14.198 2°55.346 19.282 0.06756 0.36515 -2.871232
2007-04-20 08:01:22 51°14.19 2°55.356 19.2825 0.06756 0.36515 -2.871232
2007-04-20 08:01:28 51°14.18 2°55.367 19.2844 0.06756 0.365164 -2.871232
2007-04-20 08:01:32 51°14.173 2°55.375 19.2835 0.067457 0.36459 -2.871232
2007-04-20 08:01:37 51°14.166 2°55.384 19.283 0.06756 0.365171 -2.871232
2007-04-20 08:01:43 51°14.156 2°55.395 19.2827 0.06756 0.365178 -2.871232
2007-04-20 08:01:48 51°14.148 2°55.405 19.2815 0.06756 0.365185 -2.871232
2007-04-20 08:01:53 51°14.141 2°55.414 19.2813 0.06756 0.365192 -2.871232
2007-04-20 08:01:58 51°14.133 2°55.423 19.2798 0.06756 0.365192 -2.871232
2007-04-20 08:02:02 51°14.126 2°55.43 19.2805 0.06756 0.365192 -2.871232
2007-04-20 08:02:07 51°14.118 2°55.439 19.2807 0.067457 0.364626 -2.871232
2007-04-20 08:02:13 51°14.108 2°55.449 19.2865 0.06756 0.365207 -2.871232
2007-04-20 08:02:18 51°14.101 2°55.458 19.2881 0.06756 0.365214 -2.871232
2007-04-20 08:02:23 51°14.093 2°55.468 19.289 0.06756 0.365221 -2.871232
2007-04-20 08:02:27 51°14.087 2°55.475 19.2899 0.06756 0.365221 -2.871232
2007-04-20 08:02:32 51°14.079 2°55.484 19.2885 0.06756 0.365228 -2.871232
2007-04-20 08:02:37 51°14.072 2°55.494 19.2892 0.06756 0.365235 -2.871232
2007-04-20 08:02:43 51°14.064 2°55.505 19.2882 0.06756 0.365242 -2.871232
2007-04-20 08:02:47 51°14.058 2°55.512 19.2882 0.067457 0.364668 -2.871232
2007-04-20 08:02:53 51°14.051 2°55.523 19.2878 0.06756 0.365249 -2.871232
2007-04-20 08:02:57 51°14.046 2°55.53 19.2913 0.06756 0.365249 -2.871232
2007-04-20 08:03:03 51°14.039 2°55.54 19.2905 0.06756 0.365256 -2.871232
2007-04-20 08:03:07 51°14.034 2°55.547 19.2915 0.06756 0.365263 -2.871232
2007-04-20 08:03:12 51°14.029 2°55.555 19.2924 0.067457 0.364689 -2.871232
2007-04-20 08:03:17 51°14.024 2°55.563 19.2932 0.067457 0.364696 -2.871232
2007-04-20 08:03:23 51°14.018 2°55.573 19.2935 0.067457 0.364703 -2.871232
2007-04-20 08:03:28 51°14.013 2°55.58 19.2874 0.067457 0.364703 -2.871232
2007-04-20 08:03:32 51°14.009 2°55.585 19.2834 0.067457 0.364703 -2.871232
2007-04-20 08:03:37 51°14.003 2°55.591 19.2705 0.067457 0.364703 -2.871232
2007-04-20 08:03:42 51°13.997 2°55.596 19.2757 0.06756 0.365277 -2.871232
2007-04-20 08:03:48 51°13.99 2°55.601 19.2715 0.06756 0.365285 -2.871232
2007-04-20 08:03:52 51°13.985 2°55.603 19.2744 0.067457 0.364718 -2.871232
2007-04-20 08:03:58 51°13.978 2°55.605 19.2868 0.067457 0.364718 -2.871232
2007-04-20 08:04:03 51°13.973 2°55.606 19.2961 0.067457 0.364732 -2.871232
2007-04-20 08:04:07 51°13.968 2°55.606 19.3018 0.067457 0.364739 -2.871232
2007-04-20 08:04:13 51°13.962 2°55.605 19.2969 0.067457 0.364753 -2.871232
2007-04-20 08:04:17 51°13.958 2°55.603 19.2962 0.067457 0.36476 -2.871232
2007-04-20 08:04:23 51°13.952 2°55.6 19.2826 0.06756 0.365341 -2.871232
2007-04-20 08:04:27 51°13.948 2°55.597 19.2987 0.06756 0.365341 -2.871232
2007-04-20 08:04:32 51°13.944 2°55.594 19.2982 0.06756 0.365356 -2.871232
2007-04-20 08:04:38 51°13.941 2°55.59 19.2962 0.067457 0.364788 -2.871232
2007-04-20 08:04:43 51°13.938 2°55.587 19.2969 0.06756 0.36537 -2.871232
2007-04-20 08:04:47 51°13.937 2°55.586 19.3105 0.067457 0.364796 -2.871232
2007-04-20 08:04:52 51°13.936 2°55.585 19.3036 0.067457 0.364796 -2.871232
2007-04-20 08:04:58 51°13.936 2°55.584 19.3084 0.067457 0.364803 -2.871232
2007-04-20 08:05:03 51°13.937 2°55.586 19.3073 0.067457 0.36481 -2.871232
2007-04-20 08:05:08 51°13.937 2°55.587 19.3183 0.067457 0.36481 -2.871232
2007-04-20 08:05:12 51°13.938 2°55.59 19.3175 0.067457 0.364817 -2.871232
2007-04-20 08:05:17 51°13.939 2°55.593 19.3184 0.067457 0.364824 -2.871232
2007-04-20 08:05:23 51°13.941 2°55.598 19.3216 0.06756 0.365398 -2.871232
2007-04-20 08:05:28 51°13.942 2°55.602 19.3237 0.06756 0.365398 -2.871232
2007-04-20 08:05:33 51°13.943 2°55.606 19.3218 0.06756 0.365398 -2.871232
2007-04-20 08:05:38 51°13.944 2°55.61 19.325 0.067457 0.364824 -2.871232
2007-04-20 08:05:43 51°13.945 2°55.614 19.3232 0.067457 0.364824 -2.871232
2007-04-20 08:05:48 51°13.946 2°55.619 19.326 0.067457 0.364824 -2.871232
2007-04-20 08:05:53 51°13.947 2°55.623 19.334 0.067457 0.364824 -2.871232
2007-04-20 08:05:58 51°13.948 2°55.626 19.3369 0.067457 0.364824 -2.871232
2007-04-20 08:06:03 51°13.949 2°55.628 19.3398 0.067457 0.364831 -2.871232
2007-04-20 08:06:08 51°13.949 2°55.629 19.3412 0.067457 0.364838 -2.871232
2007-04-20 08:06:13 51°13.949 2°55.629 19.3299 0.06756 0.365412 -2.871232
2007-04-20 08:06:18 51°13.95 2°55.628 19.329 0.067457 0.364838 -2.871232
2007-04-20 08:06:23 51°13.95 2°55.626 19.3282 0.067457 0.364845 -2.871232
2007-04-20 08:06:28 51°13.95 2°55.624 19.3258 0.067457 0.364845 -2.871232
2007-04-20 08:06:33 51°13.951 2°55.622 19.329 0.06756 0.365426 -2.871232
2007-04-20 08:06:38 51°13.951 2°55.619 19.3293 0.067457 0.364852 -2.871232
2007-04-20 08:06:43 51°13.951 2°55.616 19.3276 0.067457 0.364859 -2.871232
2007-04-20 08:06:48 51°13.952 2°55.613 19.3243 0.067457 0.364866 -2.871232
2007-04-20 08:06:53 51°13.953 2°55.609 19.321 0.067457 0.364873 -2.871232
2007-04-20 08:06:58 51°13.953 2°55.605 19.316 0.067457 0.364873 -2.871232
2007-04-20 08:07:03 51°13.954 2°55.601 19.3177 0.067457 0.364881 -2.871232
2007-04-20 08:07:07 51°13.955 2°55.598 19.3178 0.067457 0.364888 -2.871232
2007-04-20 08:07:12 51°13.956 2°55.593 19.3219 0.06756 0.365469 -2.871232
2007-04-20 08:07:18 51°13.957 2°55.587 19.3164 0.06756 0.365476 -2.871232
2007-04-20 08:07:23 51°13.959 2°55.582 19.3239 0.067457 0.364902 -2.871232
2007-04-20 08:07:28 51°13.96 2°55.577 19.317 0.067457 0.364902 -2.871232
2007-04-20 08:07:32 51°13.962 2°55.573 19.3235 0.067457 0.364909 -2.871232
2007-04-20 08:07:37 51°13.964 2°55.567 19.3129 0.067457 0.364909 -2.871232
2007-04-20 08:07:43 51°13.966 2°55.561 19.3209 0.067457 0.364916 -2.871232
2007-04-20 08:07:48 51°13.967 2°55.556 19.3247 0.067457 0.364916 -2.871232
2007-04-20 08:07:52 51°13.969 2°55.552 19.3273 0.067457 0.364916 -2.871232
2007-04-20 08:07:57 51°13.971 2°55.547 19.3269 0.067457 0.364916 -2.871232
2007-04-20 08:08:03 51°13.973 2°55.542 19.3332 0.06756 0.365497 -2.871232
2007-04-20 08:08:08 51°13.975 2°55.537 19.3367 0.067457 0.36493 -2.871232
2007-04-20 08:08:13 51°13.977 2°55.532 19.3407 0.06756 0.365512 -2.871232
2007-04-20 08:08:18 51°13.979 2°55.528 19.3307 0.067457 0.364937 -2.871232
2007-04-20 08:08:23 51°13.981 2°55.523 19.3409 0.067457 0.364937 -2.871232
2007-04-20 08:08:27 51°13.982 2°55.519 19.3427 0.067457 0.364944 -2.871232
2007-04-20 08:08:33 51°13.984 2°55.513 19.3414 0.067457 0.364951 -2.871232
2007-04-20 08:08:38 51°13.986 2°55.508 19.3348 0.067457 0.364959 -2.871232
2007-04-20 08:08:43 51°13.988 2°55.503 19.3422 0.067457 0.364959 -2.871232
2007-04-20 08:08:47 51°13.989 2°55.499 19.3353 0.067457 0.364966 -2.871232
2007-04-20 08:08:53 51°13.991 2°55.494 19.3415 0.067457 0.364966 -2.871232
2007-04-20 08:08:58 51°13.992 2°55.489 19.339 0.067457 0.364966 -2.871232
2007-04-20 08:09:03 51°13.994 2°55.485 19.3439 0.067457 0.364973 -2.871232
2007-04-20 08:09:08 51°13.995 2°55.482 19.3381 0.06756 0.365547 -2.871232
2007-04-20 08:09:13 51°13.996 2°55.478 19.3344 0.067457 0.364973 -2.871232
2007-04-20 08:09:17 51°13.998 2°55.476 19.3339 0.067457 0.36498 -2.871232
2007-04-20 08:09:23 51°13.999 2°55.472 19.3342 0.067457 0.36498 -2.871232
2007-04-20 08:09:27 51°14 2°55.47 19.335 0.067457 0.36498 -2.871232
2007-04-20 08:09:32 51°14.001 2°55.467 19.3371 0.067457 0.364987 -2.871232
2007-04-20 08:09:38 51°14.003 2°55.464 19.3401 0.067457 0.364994 -2.871232
2007-04-20 08:09:43 51°14.004 2°55.462 19.343 0.067457 0.364994 -2.871232
2007-04-20 08:09:47 51°14.005 2°55.46 19.339 0.067457 0.365001 -2.871232
2007-04-20 08:09:52 51°14.006 2°55.459 19.3522 0.067457 0.365008 -2.871232
2007-04-20 08:09:57 51°14.006 2°55.458 19.3712 0.067457 0.365008 -2.871232
2007-04-20 08:10:03 51°14.006 2°55.457 19.3618 0.067457 0.365008 -2.871232
2007-04-20 08:10:08 51°14.006 2°55.457 19.3475 0.067457 0.365015 -2.871232
2007-04-20 08:10:12 51°14.006 2°55.458 19.3432 0.067457 0.365022 -2.871232
2007-04-20 08:10:17 51°14.006 2°55.457 19.353 0.067457 0.365022 -2.871232
2007-04-20 08:10:22 51°14.006 2°55.457 19.3745 0.067457 0.365022 -2.871232
2007-04-20 08:10:28 51°14.006 2°55.457 19.3739 0.067457 0.365029 -2.871232
2007-04-20 08:10:33 51°14.006 2°55.457 19.3825 0.067457 0.365029 -2.871232
2007-04-20 08:10:37 51°14.007 2°55.457 19.3785 0.067457 0.365037 -2.871232
2007-04-20 08:10:43 51°14.007 2°55.456 19.3799 0.067457 0.365037 -2.871232
2007-04-20 08:10:48 51°14.007 2°55.456 19.3663 0.067457 0.365037 -2.871232
2007-04-20 08:10:52 51°14.007 2°55.456 19.3751 0.067354 0.364469 -2.871232
2007-04-20 08:10:57 51°14.007 2°55.455 19.3679 0.067354 0.364469 -2.871232
2007-04-20 08:11:03 51°14.007 2°55.455 19.3718 0.067457 0.365044 -2.871232
2007-04-20 08:11:07 51°14.007 2°55.455 19.3693 0.067457 0.365051 -2.871232
2007-04-20 08:11:13 51°14.007 2°55.454 19.369 0.067457 0.365051 -2.871232
2007-04-20 08:11:17 51°14.007 2°55.454 19.3688 0.067457 0.365058 -2.871232
2007-04-20 08:11:23 51°14.005 2°55.455 19.3683 0.067457 0.365065 -2.871232
2007-04-20 08:11:27 51°14.006 2°55.454 19.3681 0.067457 0.365065 -2.871232
2007-04-20 08:11:33 51°14.007 2°55.454 19.3651 0.067457 0.365065 -2.871232
2007-04-20 08:11:38 51°14.006 2°55.454 19.3605 0.067457 0.365072 -2.871232
2007-04-20 08:11:43 51°14.006 2°55.454 19.3697 0.067457 0.365079 -2.871232
2007-04-20 08:11:48 51°14.006 2°55.454 19.3682 0.067354 0.364505 -2.871232
2007-04-20 08:11:53 51°14.006 2°55.454 19.3692 0.067457 0.365079 -2.871232
2007-04-20 08:11:58 51°14.006 2°55.454 19.3738 0.067457 0.365079 -2.871232
2007-04-20 08:12:03 51°14.006 2°55.454 19.3764 0.067457 0.365086 -2.871232
2007-04-20 08:12:08 51°14.006 2°55.454 19.3813 0.067457 0.365086 -2.871232
2007-04-20 08:12:13 51°14.006 2°55.454 19.3871 0.067354 0.364519 -2.871232
2007-04-20 08:12:17 51°14.006 2°55.454 19.386 0.067457 0.365093 -2.871232
2007-04-20 08:12:23 51°14.006 2°55.453 19.3814 0.067457 0.365093 -2.871232
2007-04-20 08:12:28 51°14.007 2°55.453 19.3799 0.067457 0.365093 -2.871232
2007-04-20 08:12:33 51°14.007 2°55.453 19.373 0.067457 0.3651 -2.871232
2007-04-20 08:12:38 51°14.007 2°55.453 19.3781 0.067457 0.3651 -2.871232
2007-04-20 08:12:43 51°14.006 2°55.453 19.3805 0.067457 0.365108 -2.871232
2007-04-20 08:12:48 51°14.006 2°55.453 19.3838 0.067457 0.365115 -2.871232
2007-04-20 08:12:53 51°14.006 2°55.453 19.3869 0.067354 0.36454 -2.871232
2007-04-20 08:12:58 51°14.006 2°55.453 19.4114 0.067354 0.36454 -2.871232
2007-04-20 08:13:03 51°14.006 2°55.453 19.3811 0.067457 0.365122 -2.871232
2007-04-20 08:13:07 51°14.006 2°55.453 19.3884 0.067354 0.364547 -2.871232
2007-04-20 08:13:13 51°14.006 2°55.452 19.3743 0.06756 0.365704 -2.871232
2007-04-20 08:13:18 51°14.006 2°55.452 19.3978 0.067457 0.365129 -2.871232
2007-04-20 08:13:23 51°14.006 2°55.452 19.3911 0.067457 0.365136 -2.871232
2007-04-20 08:13:28 51°14.006 2°55.452 19.3916 0.067457 0.365136 -2.871232
2007-04-20 08:13:32 51°14.006 2°55.452 19.393 0.067457 0.365136 -2.871232
2007-04-20 08:13:38 51°14.006 2°55.452 19.3934 0.067457 0.365143 -2.871232
2007-04-20 08:13:43 51°14.006 2°55.452 19.396 0.067457 0.36515 -2.871232
2007-04-20 08:13:48 51°14.006 2°55.452 19.397 0.067457 0.36515 -2.871232
2007-04-20 08:13:53 51°14.006 2°55.451 19.3958 0.067457 0.36515 -2.871232
2007-04-20 08:13:58 51°14.006 2°55.452 19.3987 0.067457 0.36515 -2.871232
2007-04-20 08:14:03 51°14.006 2°55.452 19.3918 0.067457 0.365157 -2.871232
2007-04-20 08:14:08 51°14.006 2°55.452 19.4032 0.067354 0.364582 -2.871232
2007-04-20 08:14:13 51°14.006 2°55.452 19.3893 0.067354 0.36459 -2.871232
2007-04-20 08:14:18 51°14.006 2°55.452 19.407 0.067457 0.365164 -2.871232
2007-04-20 08:14:23 51°14.006 2°55.451 19.3933 0.067457 0.365171 -2.871232
2007-04-20 08:14:28 51°14.006 2°55.451 19.3947 0.067457 0.365171 -2.871232
2007-04-20 08:14:33 51°14.006 2°55.451 19.399 0.067354 0.364597 -2.871232
2007-04-20 08:14:38 51°14.006 2°55.451 19.4016 0.067457 0.365179 -2.871232
2007-04-20 08:14:43 51°14.006 2°55.451 19.4285 0.067354 0.364604 -2.871232
2007-04-20 08:14:48 51°14.006 2°55.451 19.449 0.067457 0.365186 -2.871232
2007-04-20 08:14:53 51°14.006 2°55.451 19.4393 0.067354 0.364618 -2.871232
2007-04-20 08:14:58 51°14.006 2°55.451 19.4185 0.067354 0.364618 -2.871232
2007-04-20 08:15:03 51°14.006 2°55.451 19.4019 0.067457 0.365193 -2.871232
2007-04-20 08:15:08 51°14.006 2°55.451 19.4002 0.067457 0.365193 -2.871232
2007-04-20 08:15:13 51°14.006 2°55.451 19.3978 0.067457 0.3652 -2.871232
2007-04-20 08:15:18 51°14.006 2°55.451 19.398 0.067457 0.3652 -2.871232
2007-04-20 08:15:23 51°14.006 2°55.451 19.397 0.067354 0.364632 -2.871232
2007-04-20 08:15:28 51°14.005 2°55.45 19.387 0.067354 0.364632 -2.871232
2007-04-20 08:15:33 51°14.005 2°55.45 19.3994 0.067457 0.365207 -2.871232
2007-04-20 08:15:38 51°14.005 2°55.451 19.4157 0.067457 0.365214 -2.871232
2007-04-20 08:15:43 51°14.005 2°55.451 19.4217 0.067457 0.365221 -2.871232
2007-04-20 08:15:48 51°14.005 2°55.451 19.4142 0.067354 0.364646 -2.871232
2007-04-20 08:15:53 51°14.005 2°55.451 19.4103 0.067354 0.364653 -2.871232
2007-04-20 08:15:58 51°14.005 2°55.451 19.4098 0.067354 0.364653 -2.871232
2007-04-20 08:16:03 51°14.005 2°55.451 19.4019 0.067457 0.365228 -2.871232
2007-04-20 08:16:08 51°14.005 2°55.451 19.3983 0.067354 0.36466 -2.871232
2007-04-20 08:16:13 51°14.005 2°55.452 19.3989 0.067354 0.36466 -2.871232
2007-04-20 08:16:18 51°14.005 2°55.452 19.4095 0.067354 0.364668 -2.871232
2007-04-20 08:16:23 51°14.005 2°55.452 19.4088 0.067354 0.364668 -2.871232
2007-04-20 08:16:28 51°14.005 2°55.451 19.4081 0.067354 0.364668 -2.871232
2007-04-20 08:16:33 51°14.005 2°55.451 19.4038 0.067457 0.36525 -2.871232
2007-04-20 08:16:38 51°14.005 2°55.451 19.3851 0.067354 0.364675 -2.871232
2007-04-20 08:16:43 51°14.005 2°55.451 19.3853 0.067354 0.364675 -2.871232
2007-04-20 08:16:48 51°14.005 2°55.451 19.3909 0.067457 0.365257 -2.871232
2007-04-20 08:16:53 51°14.005 2°55.451 19.3958 0.067457 0.365264 -2.871232
2007-04-20 08:16:58 51°14.005 2°55.451 19.3986 0.067457 0.365264 -2.871232
2007-04-20 08:17:03 51°14.005 2°55.451 19.3993 0.067354 0.364689 -2.871232
2007-04-20 08:17:08 51°14.004 2°55.451 19.3994 0.067457 0.365271 -2.871232
2007-04-20 08:17:13 51°14.004 2°55.451 19.4006 0.067354 0.364696 -2.871232
2007-04-20 08:17:18 51°14.004 2°55.452 19.4038 0.067354 0.364703 -2.871232
2007-04-20 08:17:23 51°14.004 2°55.452 19.4064 0.067354 0.364703 -2.871232
2007-04-20 08:17:28 51°14.004 2°55.452 19.4092 0.067354 0.364703 -2.871232
2007-04-20 08:17:33 51°14.004 2°55.451 19.4106 0.067457 0.365285 -2.871232
2007-04-20 08:17:38 51°14.003 2°55.452 19.4119 0.067457 0.365285 -2.871232
2007-04-20 08:17:43 51°14.003 2°55.453 19.4135 0.067457 0.365292 -2.871232
2007-04-20 08:17:47 51°14.003 2°55.454 19.4145 0.067457 0.365292 -2.871232
2007-04-20 08:17:53 51°14.003 2°55.454 19.4152 0.067457 0.365299 -2.871232
2007-04-20 08:17:58 51°14.003 2°55.455 19.4162 0.067457 0.365299 -2.871232
2007-04-20 08:18:03 51°14.003 2°55.455 19.4177 0.067354 0.364731 -2.871232
2007-04-20 08:18:08 51°14.003 2°55.454 19.4174 0.067251 0.364156 -2.871232
2007-04-20 08:18:13 51°14.003 2°55.455 19.4191 0.067354 0.364738 -2.871232
2007-04-20 08:18:18 51°14.002 2°55.455 19.4221 0.067457 0.365313 -2.871232
2007-04-20 08:18:23 51°14.002 2°55.455 19.4245 0.067457 0.365321 -2.871232
2007-04-20 08:18:28 51°14.003 2°55.455 19.4256 0.067457 0.365321 -2.871232
2007-04-20 08:18:33 51°14.004 2°55.454 19.4272 0.067354 0.364753 -2.871232
2007-04-20 08:18:38 51°14.004 2°55.452 19.428 0.067354 0.364753 -2.871232
2007-04-20 08:18:43 51°14.004 2°55.452 19.4289 0.067354 0.364753 -2.871232
2007-04-20 08:18:48 51°14.004 2°55.451 19.4276 0.067354 0.36476 -2.871232
2007-04-20 08:18:53 51°14.004 2°55.451 19.4268 0.067457 0.365335 -2.871232
2007-04-20 08:18:58 51°14.004 2°55.451 19.4303 0.067457 0.365335 -2.871232
2007-04-20 08:19:03 51°14.004 2°55.451 19.4325 0.067354 0.364767 -2.871232
2007-04-20 08:19:08 51°14.004 2°55.451 19.4325 0.067354 0.364774 -2.871232
2007-04-20 08:19:13 51°14.004 2°55.452 19.4357 0.067354 0.364774 -2.871232
2007-04-20 08:19:18 51°14.004 2°55.452 19.4378 0.067457 0.365356 -2.871232
2007-04-20 08:19:23 51°14.004 2°55.452 19.437 0.067457 0.365356 -2.871232
2007-04-20 08:19:28 51°14.004 2°55.451 19.4379 0.067354 0.364781 -2.871232
2007-04-20 08:19:33 51°14.004 2°55.451 19.4405 0.067354 0.364788 -2.871232
2007-04-20 08:19:38 51°14.004 2°55.451 19.4408 0.067457 0.365363 -2.871232
2007-04-20 08:19:43 51°14.005 2°55.45 19.4384 0.067354 0.364788 -2.871232
2007-04-20 08:19:48 51°14.005 2°55.449 19.4388 0.067354 0.364795 -2.871232
2007-04-20 08:19:53 51°14.006 2°55.448 19.4408 0.067354 0.364795 -2.871232
2007-04-20 08:19:58 51°14.006 2°55.447 19.4415 0.067354 0.364795 -2.871232
2007-04-20 08:20:03 51°14.006 2°55.446 19.4439 0.067354 0.364802 -2.871232
2007-04-20 08:20:08 51°14.006 2°55.446 19.4449 0.067354 0.364802 -2.871232
2007-04-20 08:20:13 51°14.005 2°55.447 19.4452 0.067354 0.364809 -2.871232
2007-04-20 08:20:18 51°14.005 2°55.447 19.4472 0.067354 0.364809 -2.871232
2007-04-20 08:20:23 51°14.005 2°55.448 19.4475 0.067354 0.364817 -2.871232
2007-04-20 08:20:28 51°14.004 2°55.449 19.4478 0.067354 0.364817 -2.871232
2007-04-20 08:20:33 51°14.004 2°55.45 19.4483 0.067457 0.365392 -2.871232
2007-04-20 08:20:38 51°14.004 2°55.45 19.4476 0.067457 0.365399 -2.871232
2007-04-20 08:20:43 51°14.004 2°55.449 19.4489 0.067457 0.365399 -2.871232
2007-04-20 08:20:48 51°14.005 2°55.448 19.448 0.067457 0.365399 -2.871232
2007-04-20 08:20:53 51°14.005 2°55.447 19.4487 0.067457 0.365406 -2.871232
2007-04-20 08:20:58 51°14.005 2°55.448 19.4491 0.067457 0.365406 -2.871232
2007-04-20 08:21:03 51°14.004 2°55.448 19.4495 0.067354 0.364831 -2.871232
2007-04-20 08:21:08 51°14.004 2°55.449 19.4495 0.067457 0.365413 -2.871232
2007-04-20 08:21:13 51°14.004 2°55.449 19.4509 0.067354 0.364838 -2.871232
2007-04-20 08:21:18 51°14.005 2°55.449 19.4514 0.067354 0.364838 -2.871232
2007-04-20 08:21:23 51°14.005 2°55.449 19.4542 0.067457 0.36542 -2.871232
2007-04-20 08:21:28 51°14.005 2°55.449 19.4558 0.067457 0.36542 -2.871232
2007-04-20 08:21:33 51°14.005 2°55.449 19.4555 0.067354 0.364845 -2.871232
2007-04-20 08:21:38 51°14.005 2°55.449 19.4552 0.067354 0.364852 -2.871232
2007-04-20 08:21:43 51°14.005 2°55.449 19.4589 0.067457 0.365427 -2.871232
2007-04-20 08:21:48 51°14.005 2°55.45 19.4595 0.067354 0.364859 -2.871232
2007-04-20 08:21:53 51°14.005 2°55.45 19.4608 0.067354 0.364859 -2.871232
2007-04-20 08:21:58 51°14.005 2°55.45 19.4611 0.067354 0.364859 -2.871232
2007-04-20 08:22:03 51°14.005 2°55.45 19.4628 0.067354 0.364866 -2.871232
2007-04-20 08:22:08 51°14.005 2°55.45 19.4644 0.067354 0.364866 -2.871232
2007-04-20 08:22:13 51°14.005 2°55.45 19.4665 0.067354 0.364873 -2.871232
2007-04-20 08:22:18 51°14.005 2°55.45 19.4678 0.067354 0.364873 -2.871232
2007-04-20 08:22:23 51°14.005 2°55.45 19.4685 0.067354 0.364873 -2.871232
2007-04-20 08:22:28 51°14.005 2°55.45 19.4696 0.067354 0.364873 -2.871232
2007-04-20 08:22:33 51°14.005 2°55.45 19.4714 0.067457 0.365456 -2.871232
2007-04-20 08:22:38 51°14.005 2°55.45 19.4732 0.067457 0.365456 -2.871232
2007-04-20 08:22:43 51°14.005 2°55.45 19.4734 0.067457 0.365456 -2.871232
2007-04-20 08:22:48 51°14.005 2°55.45 19.4748 0.067354 0.364888 -2.871232
2007-04-20 08:22:53 51°14.005 2°55.45 19.4749 0.067354 0.364888 -2.871232
2007-04-20 08:22:58 51°14.005 2°55.45 19.4753 0.067354 0.364888 -2.871232
2007-04-20 08:23:03 51°14.005 2°55.45 19.4764 0.067354 0.364895 -2.871232
2007-04-20 08:23:08 51°14.005 2°55.45 19.4773 0.067354 0.364895 -2.871232
2007-04-20 08:23:13 51°14.005 2°55.45 19.4797 0.067457 0.36547 -2.871232
2007-04-20 08:23:18 51°14.005 2°55.45 19.481 0.067354 0.364909 -2.871232
2007-04-20 08:23:23 51°14.005 2°55.451 19.4796 0.067457 0.365484 -2.871232
2007-04-20 08:23:28 51°14.005 2°55.451 19.4799 0.067457 0.365484 -2.871232
2007-04-20 08:23:33 51°14.005 2°55.451 19.4825 0.067354 0.364909 -2.871232
2007-04-20 08:23:38 51°14.005 2°55.451 19.4843 0.067354 0.364909 -2.871232
2007-04-20 08:23:43 51°14.005 2°55.451 19.484 0.067354 0.364916 -2.871232
2007-04-20 08:23:48 51°14.005 2°55.451 19.4854 0.067457 0.365491 -2.871232
2007-04-20 08:23:53 51°14.005 2°55.451 19.4861 0.067457 0.365498 -2.871232
2007-04-20 08:23:58 51°14.005 2°55.451 19.4861 0.067457 0.365498 -2.871232
2007-04-20 08:24:03 51°14.005 2°55.451 19.4864 0.067457 0.365498 -2.871232
2007-04-20 08:24:08 51°14.005 2°55.451 19.4874 0.067457 0.365498 -2.871232
2007-04-20 08:24:13 51°14.005 2°55.451 19.4867 0.067457 0.365505 -2.871232
2007-04-20 08:24:18 51°14.005 2°55.451 19.4868 0.067457 0.365505 -2.871232
2007-04-20 08:24:23 51°14.005 2°55.451 19.4873 0.067354 0.364937 -2.871232
2007-04-20 08:24:28 51°14.005 2°55.451 19.4895 0.067354 0.364937 -2.871232
2007-04-20 08:24:33 51°14.005 2°55.451 19.4913 0.067354 0.364937 -2.871232
2007-04-20 08:24:38 51°14.005 2°55.451 19.4909 0.067354 0.364937 -2.871232
2007-04-20 08:24:43 51°14.005 2°55.451 19.4913 0.067457 0.36552 -2.871232
2007-04-20 08:24:48 51°14.005 2°55.451 19.4928 0.067457 0.36552 -2.871232
2007-04-20 08:24:53 51°14.005 2°55.451 19.4942 0.067354 0.364951 -2.871232
2007-04-20 08:24:58 51°14.005 2°55.451 19.495 0.067354 0.364951 -2.871232
2007-04-20 08:25:03 51°14.005 2°55.451 19.4916 0.067457 0.365527 -2.871232
2007-04-20 08:25:08 51°14.005 2°55.451 19.4942 0.067354 0.364959 -2.871232
2007-04-20 08:25:13 51°14.005 2°55.451 19.4974 0.067354 0.364951 -2.871232
2007-04-20 08:25:18 51°14.005 2°55.451 19.5004 0.067354 0.364959 -2.871232
2007-04-20 08:25:23 51°14.005 2°55.451 19.4981 0.067354 0.364959 -2.871232
2007-04-20 08:25:28 51°14.005 2°55.451 19.5005 0.067354 0.364959 -2.871232
2007-04-20 08:25:33 51°14.005 2°55.451 19.5017 0.067354 0.364966 -2.871232
2007-04-20 08:25:38 51°14.005 2°55.451 19.4971 0.067457 0.365541 -2.871232
2007-04-20 08:25:43 51°14.005 2°55.451 19.499 0.067354 0.364966 -2.871232
2007-04-20 08:25:48 51°14.005 2°55.45 19.5016 0.067354 0.364973 -2.871232
2007-04-20 08:25:53 51°14.005 2°55.45 19.5024 0.067354 0.364973 -2.871232
2007-04-20 08:25:58 51°14.005 2°55.45 19.5027 0.067354 0.364973 -2.871232
2007-04-20 08:26:03 51°14.005 2°55.45 19.5026 0.067457 0.365555 -2.871232
2007-04-20 08:26:08 51°14.005 2°55.45 19.5049 0.067457 0.365555 -2.871232
2007-04-20 08:26:13 51°14.005 2°55.45 19.5061 0.067354 0.364987 -2.871232
2007-04-20 08:26:18 51°14.005 2°55.45 19.5072 0.067457 0.365562 -2.871232
2007-04-20 08:26:23 51°14.005 2°55.45 19.5085 0.067354 0.364987 -2.871232
2007-04-20 08:26:28 51°14.005 2°55.45 19.5089 0.067354 0.364987 -2.871232
2007-04-20 08:26:33 51°14.005 2°55.45 19.5099 0.067354 0.364994 -2.871232
2007-04-20 08:26:38 51°14.005 2°55.45 19.5101 0.067251 0.364419 -2.871232
2007-04-20 08:26:43 51°14.005 2°55.45 19.5108 0.067354 0.365001 -2.871232
2007-04-20 08:26:48 51°14.005 2°55.45 19.5118 0.067354 0.365001 -2.871232
2007-04-20 08:26:53 51°14.005 2°55.45 19.5119 0.067354 0.365001 -2.871232
2007-04-20 08:26:58 51°14.005 2°55.45 19.5122 0.067354 0.365001 -2.871232
2007-04-20 08:27:03 51°14.005 2°55.45 19.5141 0.067354 0.365008 -2.871232
2007-04-20 08:27:08 51°14.005 2°55.45 19.5154 0.067354 0.365008 -2.871232
2007-04-20 08:27:13 51°14.005 2°55.45 19.5175 0.067354 0.365015 -2.871232
2007-04-20 08:27:18 51°14.005 2°55.45 19.5189 0.067457 0.365591 -2.871232
2007-04-20 08:27:23 51°14.005 2°55.45 19.5208 0.067457 0.365591 -2.871232
2007-04-20 08:27:28 51°14.005 2°55.45 19.5225 0.067457 0.365591 -2.871232
2007-04-20 08:27:33 51°14.005 2°55.45 19.5236 0.067354 0.365023 -2.871232
2007-04-20 08:27:38 51°14.005 2°55.45 19.5255 0.067354 0.365023 -2.871232
2007-04-20 08:27:43 51°14.005 2°55.45 19.5261 0.067457 0.365605 -2.871232
2007-04-20 08:27:48 51°14.005 2°55.451 19.5204 0.067457 0.365605 -2.871232
2007-04-20 08:27:53 51°14.005 2°55.451 19.5191 0.067354 0.365037 -2.871232
2007-04-20 08:27:58 51°14.005 2°55.451 19.5125 0.067354 0.365037 -2.871232
2007-04-20 08:28:03 51°14.005 2°55.451 19.5079 0.067354 0.365037 -2.871232
2007-04-20 08:28:08 51°14.005 2°55.451 19.5216 0.067354 0.365037 -2.871232
2007-04-20 08:28:13 51°14.005 2°55.451 19.5301 0.067457 0.365619 -2.871232
2007-04-20 08:28:18 51°14.005 2°55.451 19.5319 0.067354 0.365044 -2.871232
2007-04-20 08:28:23 51°14.005 2°55.451 19.5348 0.067354 0.365051 -2.871232
2007-04-20 08:28:28 51°14.005 2°55.451 19.5384 0.067354 0.365051 -2.871232
2007-04-20 08:28:33 51°14.005 2°55.451 19.5447 0.067354 0.365051 -2.871232
2007-04-20 08:28:38 51°14.005 2°55.451 19.544 0.067354 0.365051 -2.871232
2007-04-20 08:28:43 51°14.005 2°55.45 19.5503 0.067354 0.365058 -2.871232
2007-04-20 08:28:48 51°14.005 2°55.45 19.5438 0.067354 0.365058 -2.871232
2007-04-20 08:28:53 51°14.005 2°55.45 19.5656 0.067354 0.365065 -2.871232
2007-04-20 08:28:58 51°14.005 2°55.45 19.546 0.067354 0.365065 -2.871232
2007-04-20 08:29:03 51°14.005 2°55.45 19.5366 0.067354 0.365065 -2.871232
2007-04-20 08:29:08 51°14.005 2°55.45 19.5493 0.067354 0.365072 -2.871232
2007-04-20 08:29:13 51°14.005 2°55.45 19.5412 0.067354 0.365072 -2.871232
2007-04-20 08:29:18 51°14.005 2°55.45 19.5417 0.067354 0.365079 -2.871232
2007-04-20 08:29:23 51°14.005 2°55.45 19.5469 0.067354 0.365079 -2.871232
2007-04-20 08:29:28 51°14.005 2°55.45 19.5519 0.067354 0.365079 -2.871232
2007-04-20 08:29:33 51°14.005 2°55.45 19.546 0.067354 0.365087 -2.871232
2007-04-20 08:29:38 51°14.005 2°55.45 19.5493 0.067354 0.365087 -2.871232
2007-04-20 08:29:43 51°14.005 2°55.45 19.5578 0.067457 0.365669 -2.871232
2007-04-20 08:29:48 51°14.005 2°55.45 19.5576 0.067354 0.365094 -2.871232
2007-04-20 08:29:53 51°14.005 2°55.45 19.5567 0.067457 0.365669 -2.871232
2007-04-20 08:29:58 51°14.005 2°55.45 19.5666 0.067457 0.365669 -2.871232
2007-04-20 08:30:03 51°14.005 2°55.451 19.5619 0.067457 0.365676 -2.871232
2007-04-20 08:30:08 51°14.005 2°55.451 19.56 0.067354 0.365101 -2.871232
2007-04-20 08:30:13 51°14.005 2°55.451 19.5611 0.067354 0.365101 -2.871232
2007-04-20 08:30:18 51°14.005 2°55.451 19.5646 0.067354 0.365108 -2.871232
2007-04-20 08:30:23 51°14.005 2°55.451 19.5668 0.067354 0.365108 -2.871232
2007-04-20 08:30:28 51°14.005 2°55.451 19.5664 0.067354 0.365108 -2.871232
2007-04-20 08:30:33 51°14.005 2°55.451 19.5659 0.067354 0.365115 -2.871232
2007-04-20 08:30:38 51°14.005 2°55.451 19.5675 0.067354 0.365115 -2.871232
2007-04-20 08:30:43 51°14.005 2°55.451 19.5701 0.067354 0.365115 -2.871232
2007-04-20 08:30:48 51°14.005 2°55.451 19.5704 0.067354 0.365122 -2.871232
2007-04-20 08:30:53 51°14.005 2°55.451 19.5696 0.067354 0.365129 -2.871232
2007-04-20 08:30:58 51°14.005 2°55.451 19.5688 0.067354 0.365129 -2.871232
2007-04-20 08:31:03 51°14.005 2°55.451 19.5679 0.067354 0.365129 -2.871232
2007-04-20 08:31:08 51°14.005 2°55.451 19.5693 0.067354 0.365136 -2.871232
2007-04-20 08:31:13 51°14.005 2°55.451 19.5673 0.067457 0.365712 -2.871232
2007-04-20 08:31:18 51°14.005 2°55.451 19.5685 0.067457 0.365712 -2.871232
2007-04-20 08:31:23 51°14.005 2°55.451 19.5684 0.067457 0.365719 -2.871232
2007-04-20 08:31:28 51°14.005 2°55.451 19.5753 0.067457 0.365719 -2.871232
2007-04-20 08:31:33 51°14.005 2°55.451 19.5708 0.067354 0.365143 -2.871232
2007-04-20 08:31:38 51°14.005 2°55.451 19.5681 0.067354 0.365151 -2.871232
2007-04-20 08:31:43 51°14.005 2°55.451 19.576 0.067354 0.365151 -2.871232
2007-04-20 08:31:48 51°14.005 2°55.451 19.5772 0.067457 0.365733 -2.871232
2007-04-20 08:31:53 51°14.005 2°55.451 19.5764 0.067457 0.365733 -2.871232
2007-04-20 08:31:58 51°14.005 2°55.451 19.5847 0.067457 0.365733 -2.871232
2007-04-20 08:32:03 51°14.005 2°55.451 19.5725 0.067354 0.365165 -2.871232
2007-04-20 08:32:08 51°14.005 2°55.451 19.5779 0.067354 0.365165 -2.871232
2007-04-20 08:32:13 51°14.005 2°55.451 19.5787 0.067354 0.365172 -2.871232
2007-04-20 08:32:18 51°14.005 2°55.451 19.5749 0.067354 0.365172 -2.871232
2007-04-20 08:32:23 51°14.005 2°55.451 19.5698 0.067354 0.365179 -2.871232
2007-04-20 08:32:28 51°14.005 2°55.451 19.571 0.067354 0.365179 -2.871232
2007-04-20 08:32:33 51°14.005 2°55.451 19.5704 0.067457 0.365755 -2.871232
2007-04-20 08:32:38 51°14.005 2°55.451 19.5777 0.067354 0.365186 -2.871232
2007-04-20 08:32:43 51°14.005 2°55.451 19.5819 0.067354 0.365186 -2.871232
2007-04-20 08:32:48 51°14.005 2°55.451 19.5942 0.067354 0.365193 -2.871232
2007-04-20 08:32:53 51°14.005 2°55.451 19.5976 0.067457 0.365769 -2.871232
2007-04-20 08:32:58 51°14.005 2°55.451 19.587 0.067457 0.365769 -2.871232
2007-04-20 08:33:03 51°14.005 2°55.451 19.5938 0.067354 0.3652 -2.871232
2007-04-20 08:33:08 51°14.005 2°55.451 19.5929 0.067354 0.3652 -2.871232
2007-04-20 08:33:13 51°14.005 2°55.451 19.5975 0.067251 0.364632 -2.871232
2007-04-20 08:33:18 51°14.005 2°55.451 19.599 0.067457 0.36579 -2.871232
2007-04-20 08:33:23 51°14.005 2°55.451 19.5983 0.067457 0.36579 -2.871232
2007-04-20 08:33:28 51°14.005 2°55.451 19.601 0.067457 0.36579 -2.871232
2007-04-20 08:33:33 51°14.005 2°55.451 19.6015 0.067354 0.365215 -2.871232
2007-04-20 08:33:38 51°14.005 2°55.451 19.5957 0.067251 0.364646 -2.871232
2007-04-20 08:33:43 51°14.005 2°55.451 19.5995 0.067354 0.365222 -2.871232
2007-04-20 08:33:48 51°14.005 2°55.451 19.6023 0.067354 0.365229 -2.871232
2007-04-20 08:33:53 51°14.005 2°55.451 19.6019 0.067457 0.365805 -2.871232
2007-04-20 08:33:58 51°14.005 2°55.451 19.6023 0.067457 0.365805 -2.871232
2007-04-20 08:34:03 51°14.004 2°55.451 19.6041 0.067354 0.365236 -2.871232
2007-04-20 08:34:08 51°14.004 2°55.451 19.6049 0.067354 0.365236 -2.871232
2007-04-20 08:34:13 51°14.004 2°55.451 19.605 0.067354 0.365243 -2.871232
2007-04-20 08:34:18 51°14.004 2°55.451 19.6024 0.067457 0.365819 -2.871232
2007-04-20 08:34:23 51°14.004 2°55.451 19.6023 0.067457 0.365826 -2.871232
2007-04-20 08:34:28 51°14.004 2°55.451 19.5995 0.067457 0.365826 -2.871232
2007-04-20 08:34:33 51°14.004 2°55.451 19.6006 0.067354 0.365257 -2.871232
2007-04-20 08:34:38 51°14.004 2°55.451 19.6089 0.067251 0.364681 -2.871232
2007-04-20 08:34:43 51°14.004 2°55.451 19.6111 0.067354 0.365257 -2.871232
2007-04-20 08:34:48 51°14.004 2°55.451 19.6037 0.067354 0.365264 -2.871232
2007-04-20 08:34:53 51°14.004 2°55.451 19.6028 0.067354 0.365272 -2.871232
2007-04-20 08:34:58 51°14.004 2°55.451 19.6036 0.067354 0.365272 -2.871232
2007-04-20 08:35:03 51°14.004 2°55.451 19.605 0.067354 0.365279 -2.871232
2007-04-20 08:35:08 51°14.004 2°55.451 19.6061 0.067354 0.365279 -2.871232
2007-04-20 08:35:13 51°14.004 2°55.451 19.6086 0.067354 0.365286 -2.871232
2007-04-20 08:35:18 51°14.004 2°55.451 19.61 0.067354 0.365286 -2.871232
2007-04-20 08:35:23 51°14.004 2°55.451 19.6121 0.067354 0.365293 -2.871232
2007-04-20 08:35:28 51°14.004 2°55.451 19.6125 0.067354 0.365293 -2.871232
2007-04-20 08:35:33 51°14.004 2°55.451 19.6117 0.067354 0.365293 -2.871232
2007-04-20 08:35:38 51°14.004 2°55.451 19.612 0.067354 0.3653 -2.871232
2007-04-20 08:35:43 51°14.005 2°55.452 19.6095 0.067354 0.365307 -2.871232
2007-04-20 08:35:48 51°14.005 2°55.452 19.6088 0.067457 0.365883 -2.871232
2007-04-20 08:35:53 51°14.005 2°55.452 19.6025 0.067354 0.365314 -2.871232
2007-04-20 08:35:58 51°14.005 2°55.452 19.5827 0.067354 0.365314 -2.871232
2007-04-20 08:36:03 51°14.005 2°55.452 19.5817 0.067354 0.365314 -2.871232
2007-04-20 08:36:08 51°14.005 2°55.452 19.597 0.067354 0.365321 -2.871232
2007-04-20 08:36:13 51°14.005 2°55.452 19.599 0.067354 0.365328 -2.871232
2007-04-20 08:36:18 51°14.005 2°55.452 19.602 0.067354 0.365328 -2.871232
2007-04-20 08:36:23 51°14.005 2°55.452 19.5847 0.067354 0.365336 -2.871232
2007-04-20 08:36:28 51°14.005 2°55.452 19.589 0.067354 0.365336 -2.871232
2007-04-20 08:36:33 51°14.005 2°55.452 19.599 0.067354 0.365336 -2.871232
2007-04-20 08:36:38 51°14.005 2°55.452 19.6039 0.067354 0.365343 -2.871232
2007-04-20 08:36:43 51°14.005 2°55.452 19.6056 0.067354 0.365343 -2.871232
2007-04-20 08:36:48 51°14.005 2°55.452 19.613 0.067251 0.364774 -2.871232
2007-04-20 08:36:53 51°14.005 2°55.452 19.6154 0.067354 0.365357 -2.871232
2007-04-20 08:36:58 51°14.005 2°55.452 19.6186 0.067354 0.365357 -2.871232
2007-04-20 08:37:03 51°14.005 2°55.452 19.6185 0.067354 0.365357 -2.871232
2007-04-20 08:37:08 51°14.005 2°55.452 19.6228 0.067354 0.365364 -2.871232
2007-04-20 08:37:13 51°14.005 2°55.452 19.6274 0.067354 0.365371 -2.871232
2007-04-20 08:37:18 51°14.005 2°55.452 19.63 0.067354 0.365371 -2.871232
2007-04-20 08:37:23 51°14.005 2°55.452 19.6269 0.067354 0.365378 -2.871232
2007-04-20 08:37:28 51°14.005 2°55.452 19.6291 0.067354 0.365378 -2.871232
2007-04-20 08:37:33 51°14.005 2°55.452 19.6306 0.067354 0.365378 -2.871232
2007-04-20 08:37:38 51°14.005 2°55.452 19.6311 0.067354 0.365385 -2.871232
2007-04-20 08:37:43 51°14.005 2°55.452 19.6326 0.067354 0.365385 -2.871232
2007-04-20 08:37:48 51°14.005 2°55.452 19.6343 0.067354 0.365393 -2.871232
2007-04-20 08:37:53 51°14.005 2°55.452 19.6351 0.067354 0.365393 -2.871232
2007-04-20 08:37:58 51°14.005 2°55.452 19.6346 0.067354 0.365393 -2.871232
2007-04-20 08:38:03 51°14.005 2°55.452 19.6367 0.067354 0.3654 -2.871232
2007-04-20 08:38:08 51°14.005 2°55.452 19.6384 0.067354 0.365407 -2.871232
2007-04-20 08:38:13 51°14.005 2°55.452 19.6412 0.067251 0.364831 -2.871232
2007-04-20 08:38:18 51°14.005 2°55.452 19.6423 0.067354 0.365407 -2.871232
2007-04-20 08:38:23 51°14.005 2°55.452 19.6439 0.067354 0.365414 -2.871232
2007-04-20 08:38:28 51°14.005 2°55.452 19.6447 0.067354 0.365414 -2.871232
2007-04-20 08:38:33 51°14.005 2°55.452 19.6461 0.067354 0.365421 -2.871232
2007-04-20 08:38:38 51°14.005 2°55.452 19.6459 0.067354 0.365421 -2.871232
2007-04-20 08:38:43 51°14.005 2°55.452 19.6455 0.067354 0.365428 -2.871232
2007-04-20 08:38:48 51°14.005 2°55.452 19.6474 0.067354 0.365435 -2.871232
2007-04-20 08:38:53 51°14.005 2°55.452 19.6478 0.067457 0.366019 -2.871232
2007-04-20 08:38:58 51°14.005 2°55.452 19.6491 0.067457 0.366019 -2.871232
2007-04-20 08:39:03 51°14.005 2°55.452 19.6515 0.067354 0.365442 -2.871232
2007-04-20 08:39:08 51°14.005 2°55.452 19.6512 0.067354 0.36545 -2.871232
2007-04-20 08:39:13 51°14.005 2°55.452 19.6508 0.067354 0.36545 -2.871232
2007-04-20 08:39:18 51°14.005 2°55.452 19.6511 0.067354 0.36545 -2.871232
2007-04-20 08:39:23 51°14.005 2°55.452 19.6527 0.067354 0.365457 -2.871232
2007-04-20 08:39:28 51°14.005 2°55.452 19.6539 0.067354 0.365457 -2.871232
2007-04-20 08:39:33 51°14.005 2°55.452 19.6552 0.067354 0.365457 -2.871232
2007-04-20 08:39:38 51°14.005 2°55.452 19.6569 0.067354 0.365457 -2.871232
2007-04-20 08:39:43 51°14.005 2°55.452 19.6581 0.067354 0.365457 -2.871232
2007-04-20 08:39:48 51°14.005 2°55.451 19.6586 0.067354 0.365464 -2.871232
2007-04-20 08:39:53 51°14.005 2°55.451 19.6596 0.067457 0.366047 -2.871232
2007-04-20 08:39:58 51°14.005 2°55.451 19.6606 0.067457 0.366047 -2.871232
2007-04-20 08:40:03 51°14.005 2°55.451 19.6611 0.067354 0.365471 -2.871232
2007-04-20 08:40:08 51°14.005 2°55.451 19.6615 0.067354 0.365478 -2.871232
2007-04-20 08:40:13 51°14.005 2°55.451 19.6625 0.067354 0.365478 -2.871232
2007-04-20 08:40:18 51°14.005 2°55.451 19.6636 0.067354 0.365485 -2.871232
2007-04-20 08:40:23 51°14.005 2°55.451 19.6638 0.067354 0.365492 -2.871232
2007-04-20 08:40:28 51°14.005 2°55.451 19.6654 0.067354 0.365492 -2.871232
2007-04-20 08:40:33 51°14.005 2°55.451 19.6642 0.067354 0.365492 -2.871232
2007-04-20 08:40:38 51°14.005 2°55.451 19.6642 0.067354 0.365499 -2.871232
2007-04-20 08:40:43 51°14.005 2°55.451 19.6651 0.067354 0.365499 -2.871232
2007-04-20 08:40:48 51°14.005 2°55.451 19.6672 0.067354 0.365499 -2.871232
2007-04-20 08:40:53 51°14.006 2°55.451 19.6682 0.067354 0.365507 -2.871232
2007-04-20 08:40:58 51°14.006 2°55.451 19.6699 0.067354 0.365507 -2.871232
2007-04-20 08:41:03 51°14.006 2°55.451 19.6707 0.067354 0.365507 -2.871232
2007-04-20 08:41:08 51°14.006 2°55.452 19.6717 0.067354 0.365514 -2.871232
2007-04-20 08:41:13 51°14.006 2°55.452 19.6726 0.067354 0.365514 -2.871232
2007-04-20 08:41:18 51°14.006 2°55.452 19.6732 0.067354 0.365514 -2.871232
2007-04-20 08:41:23 51°14.006 2°55.452 19.6742 0.067354 0.365521 -2.871232
2007-04-20 08:41:28 51°14.006 2°55.452 19.6744 0.067354 0.365521 -2.871232
2007-04-20 08:41:33 51°14.006 2°55.452 19.6747 0.067354 0.365528 -2.871232
2007-04-20 08:41:38 51°14.006 2°55.452 19.675 0.067354 0.365528 -2.871232
2007-04-20 08:41:43 51°14.006 2°55.452 19.6744 0.067354 0.365535 -2.871232